<?xml version="1.0" encoding="UTF-8" standalone="no" ?>
<gpx xmlns="http://www.topografix.com/GPX/1/1" xmlns:xsi="http://www.w3.org/2001/XMLSchema-instance" xsi:schemaLocation="http://www.topografix.com/GPX/1/1 http://www.topografix.com/GPX/1/1/gpx.xsd" version="1.1" creator="VisuGPX - https://www.visugpx.com">
  <metadata>
    <name>Sentier cathare - étape 1</name>
    <desc><![CDATA[Jour 1 : de Port-la-nouvelle à Roquefort-des-Corbières]]></desc>
  </metadata>
  <trk>
    <name><![CDATA[22-JUIL-16 14:01:50]]></name>
    <trkseg>
      <trkpt lat="43.01993" lon="3.03975">
        <ele>-16.21</ele>
        <time>2016-07-22T09:34:48Z</time>
      </trkpt>
      <trkpt lat="43.01993" lon="3.03975">
        <ele>-19.57</ele>
        <time>2016-07-22T09:34:49Z</time>
      </trkpt>
      <trkpt lat="43.01991" lon="3.03976">
        <ele>-19.57</ele>
        <time>2016-07-22T09:34:50Z</time>
      </trkpt>
      <trkpt lat="43.0198" lon="3.03977">
        <ele>-16.21</ele>
        <time>2016-07-22T09:35:01Z</time>
      </trkpt>
      <trkpt lat="43.01977" lon="3.03976">
        <ele>-14.28</ele>
        <time>2016-07-22T09:35:04Z</time>
      </trkpt>
      <trkpt lat="43.01971" lon="3.03975">
        <ele>-11.4</ele>
        <time>2016-07-22T09:35:10Z</time>
      </trkpt>
      <trkpt lat="43.01966" lon="3.03975">
        <ele>-9</ele>
        <time>2016-07-22T09:35:14Z</time>
      </trkpt>
      <trkpt lat="43.01956" lon="3.03972">
        <ele>-5.63</ele>
        <time>2016-07-22T09:35:23Z</time>
      </trkpt>
      <trkpt lat="43.01938" lon="3.03972">
        <ele>-1.79</ele>
        <time>2016-07-22T09:35:37Z</time>
      </trkpt>
      <trkpt lat="43.01911" lon="3.03973">
        <ele>0.62</ele>
        <time>2016-07-22T09:35:57Z</time>
      </trkpt>
      <trkpt lat="43.01899" lon="3.03972">
        <ele>1.58</ele>
        <time>2016-07-22T09:36:09Z</time>
      </trkpt>
      <trkpt lat="43.01872" lon="3.0397">
        <ele>3.02</ele>
        <time>2016-07-22T09:36:31Z</time>
      </trkpt>
      <trkpt lat="43.01842" lon="3.03974">
        <ele>3.02</ele>
        <time>2016-07-22T09:36:50Z</time>
      </trkpt>
      <trkpt lat="43.01822" lon="3.03973">
        <ele>3.02</ele>
        <time>2016-07-22T09:37:07Z</time>
      </trkpt>
      <trkpt lat="43.01805" lon="3.03974">
        <ele>3.02</ele>
        <time>2016-07-22T09:37:23Z</time>
      </trkpt>
      <trkpt lat="43.01778" lon="3.03972">
        <ele>3.02</ele>
        <time>2016-07-22T09:37:43Z</time>
      </trkpt>
      <trkpt lat="43.01737" lon="3.03982">
        <ele>3.02</ele>
        <time>2016-07-22T09:38:04Z</time>
      </trkpt>
      <trkpt lat="43.01715" lon="3.03974">
        <ele>3.02</ele>
        <time>2016-07-22T09:38:21Z</time>
      </trkpt>
      <trkpt lat="43.01688" lon="3.0398">
        <ele>3.5</ele>
        <time>2016-07-22T09:38:40Z</time>
      </trkpt>
      <trkpt lat="43.01656" lon="3.03982">
        <ele>3.98</ele>
        <time>2016-07-22T09:39:04Z</time>
      </trkpt>
      <trkpt lat="43.0162" lon="3.03984">
        <ele>4.46</ele>
        <time>2016-07-22T09:39:30Z</time>
      </trkpt>
      <trkpt lat="43.016" lon="3.03984">
        <ele>3.5</ele>
        <time>2016-07-22T09:39:51Z</time>
      </trkpt>
      <trkpt lat="43.01602" lon="3.0399">
        <ele>3.5</ele>
        <time>2016-07-22T09:40:22Z</time>
      </trkpt>
      <trkpt lat="43.01589" lon="3.03986">
        <ele>4.46</ele>
        <time>2016-07-22T09:40:46Z</time>
      </trkpt>
      <trkpt lat="43.0156" lon="3.03989">
        <ele>4.94</ele>
        <time>2016-07-22T09:41:07Z</time>
      </trkpt>
      <trkpt lat="43.01522" lon="3.03986">
        <ele>4.94</ele>
        <time>2016-07-22T09:41:33Z</time>
      </trkpt>
      <trkpt lat="43.01499" lon="3.0397">
        <ele>4.46</ele>
        <time>2016-07-22T09:41:51Z</time>
      </trkpt>
      <trkpt lat="43.01479" lon="3.03961">
        <ele>3.98</ele>
        <time>2016-07-22T09:42:08Z</time>
      </trkpt>
      <trkpt lat="43.01452" lon="3.03956">
        <ele>3.98</ele>
        <time>2016-07-22T09:42:25Z</time>
      </trkpt>
      <trkpt lat="43.01424" lon="3.03953">
        <ele>3.5</ele>
        <time>2016-07-22T09:42:46Z</time>
      </trkpt>
      <trkpt lat="43.01396" lon="3.03954">
        <ele>3.98</ele>
        <time>2016-07-22T09:43:04Z</time>
      </trkpt>
      <trkpt lat="43.01365" lon="3.0395">
        <ele>3.5</ele>
        <time>2016-07-22T09:43:23Z</time>
      </trkpt>
      <trkpt lat="43.01344" lon="3.03954">
        <ele>2.06</ele>
        <time>2016-07-22T09:43:41Z</time>
      </trkpt>
      <trkpt lat="43.01343" lon="3.03954">
        <ele>5.42</ele>
        <time>2016-07-22T09:43:42Z</time>
      </trkpt>
      <trkpt lat="43.01342" lon="3.03954">
        <ele>5.91</ele>
        <time>2016-07-22T09:43:43Z</time>
      </trkpt>
      <trkpt lat="43.01339" lon="3.03953">
        <ele>3.98</ele>
        <time>2016-07-22T09:43:45Z</time>
      </trkpt>
      <trkpt lat="43.01318" lon="3.03949">
        <ele>3.5</ele>
        <time>2016-07-22T09:44:03Z</time>
      </trkpt>
      <trkpt lat="43.01289" lon="3.03948">
        <ele>4.46</ele>
        <time>2016-07-22T09:44:21Z</time>
      </trkpt>
      <trkpt lat="43.01266" lon="3.03951">
        <ele>3.5</ele>
        <time>2016-07-22T09:44:40Z</time>
      </trkpt>
      <trkpt lat="43.01242" lon="3.03961">
        <ele>-2.27</ele>
        <time>2016-07-22T09:44:56Z</time>
      </trkpt>
      <trkpt lat="43.0124" lon="3.03961">
        <ele>11.19</ele>
        <time>2016-07-22T09:44:57Z</time>
      </trkpt>
      <trkpt lat="43.01239" lon="3.03961">
        <ele>4.94</ele>
        <time>2016-07-22T09:44:58Z</time>
      </trkpt>
      <trkpt lat="43.01237" lon="3.03961">
        <ele>3.98</ele>
        <time>2016-07-22T09:45:00Z</time>
      </trkpt>
      <trkpt lat="43.01215" lon="3.03968">
        <ele>3.02</ele>
        <time>2016-07-22T09:45:17Z</time>
      </trkpt>
      <trkpt lat="43.01215" lon="3.03969">
        <ele>-2.27</ele>
        <time>2016-07-22T09:45:19Z</time>
      </trkpt>
      <trkpt lat="43.01215" lon="3.03969">
        <ele>7.35</ele>
        <time>2016-07-22T09:45:20Z</time>
      </trkpt>
      <trkpt lat="43.01215" lon="3.03969">
        <ele>4.46</ele>
        <time>2016-07-22T09:45:23Z</time>
      </trkpt>
      <trkpt lat="43.01218" lon="3.03975">
        <ele>3.98</ele>
        <time>2016-07-22T09:45:33Z</time>
      </trkpt>
      <trkpt lat="43.01219" lon="3.03975">
        <ele>3.98</ele>
        <time>2016-07-22T09:45:34Z</time>
      </trkpt>
      <trkpt lat="43.01221" lon="3.03974">
        <ele>3.5</ele>
        <time>2016-07-22T09:45:35Z</time>
      </trkpt>
      <trkpt lat="43.01222" lon="3.03973">
        <ele>4.46</ele>
        <time>2016-07-22T09:45:36Z</time>
      </trkpt>
      <trkpt lat="43.01224" lon="3.03972">
        <ele>4.46</ele>
        <time>2016-07-22T09:45:37Z</time>
      </trkpt>
      <trkpt lat="43.01225" lon="3.03972">
        <ele>4.46</ele>
        <time>2016-07-22T09:45:38Z</time>
      </trkpt>
      <trkpt lat="43.01227" lon="3.03971">
        <ele>3.98</ele>
        <time>2016-07-22T09:45:39Z</time>
      </trkpt>
      <trkpt lat="43.01233" lon="3.03971">
        <ele>3.5</ele>
        <time>2016-07-22T09:45:44Z</time>
      </trkpt>
      <trkpt lat="43.01239" lon="3.03982">
        <ele>3.98</ele>
        <time>2016-07-22T09:45:57Z</time>
      </trkpt>
      <trkpt lat="43.01242" lon="3.03981">
        <ele>4.94</ele>
        <time>2016-07-22T09:46:31Z</time>
      </trkpt>
      <trkpt lat="43.01242" lon="3.03983">
        <ele>4.46</ele>
        <time>2016-07-22T09:47:02Z</time>
      </trkpt>
      <trkpt lat="43.01242" lon="3.03977">
        <ele>4.94</ele>
        <time>2016-07-22T09:47:15Z</time>
      </trkpt>
      <trkpt lat="43.01246" lon="3.03978">
        <ele>7.35</ele>
        <time>2016-07-22T09:47:29Z</time>
      </trkpt>
      <trkpt lat="43.01248" lon="3.03978">
        <ele>9.27</ele>
        <time>2016-07-22T09:47:42Z</time>
      </trkpt>
      <trkpt lat="43.01254" lon="3.03977">
        <ele>12.15</ele>
        <time>2016-07-22T09:47:54Z</time>
      </trkpt>
      <trkpt lat="43.01254" lon="3.03976">
        <ele>12.63</ele>
        <time>2016-07-22T09:47:57Z</time>
      </trkpt>
      <trkpt lat="43.01251" lon="3.0396">
        <ele>13.6</ele>
        <time>2016-07-22T09:48:11Z</time>
      </trkpt>
      <trkpt lat="43.01246" lon="3.03932">
        <ele>12.63</ele>
        <time>2016-07-22T09:48:27Z</time>
      </trkpt>
      <trkpt lat="43.01239" lon="3.03895">
        <ele>11.19</ele>
        <time>2016-07-22T09:48:46Z</time>
      </trkpt>
      <trkpt lat="43.01235" lon="3.03864">
        <ele>11.67</ele>
        <time>2016-07-22T09:49:03Z</time>
      </trkpt>
      <trkpt lat="43.01236" lon="3.03824">
        <ele>11.19</ele>
        <time>2016-07-22T09:49:24Z</time>
      </trkpt>
      <trkpt lat="43.01244" lon="3.03786">
        <ele>8.79</ele>
        <time>2016-07-22T09:49:45Z</time>
      </trkpt>
      <trkpt lat="43.01252" lon="3.0375">
        <ele>6.87</ele>
        <time>2016-07-22T09:50:05Z</time>
      </trkpt>
      <trkpt lat="43.01248" lon="3.03714">
        <ele>5.42</ele>
        <time>2016-07-22T09:50:24Z</time>
      </trkpt>
      <trkpt lat="43.01243" lon="3.03685">
        <ele>5.42</ele>
        <time>2016-07-22T09:50:40Z</time>
      </trkpt>
      <trkpt lat="43.01243" lon="3.03676">
        <ele>5.42</ele>
        <time>2016-07-22T09:50:45Z</time>
      </trkpt>
      <trkpt lat="43.01247" lon="3.0367">
        <ele>5.91</ele>
        <time>2016-07-22T09:50:49Z</time>
      </trkpt>
      <trkpt lat="43.0125" lon="3.03655">
        <ele>5.42</ele>
        <time>2016-07-22T09:51:01Z</time>
      </trkpt>
      <trkpt lat="43.01246" lon="3.0363">
        <ele>5.91</ele>
        <time>2016-07-22T09:51:16Z</time>
      </trkpt>
      <trkpt lat="43.01246" lon="3.03616">
        <ele>5.42</ele>
        <time>2016-07-22T09:51:23Z</time>
      </trkpt>
      <trkpt lat="43.01253" lon="3.03581">
        <ele>5.42</ele>
        <time>2016-07-22T09:51:41Z</time>
      </trkpt>
      <trkpt lat="43.01261" lon="3.03554">
        <ele>6.87</ele>
        <time>2016-07-22T09:51:56Z</time>
      </trkpt>
      <trkpt lat="43.01268" lon="3.0352">
        <ele>8.79</ele>
        <time>2016-07-22T09:52:15Z</time>
      </trkpt>
      <trkpt lat="43.01268" lon="3.03509">
        <ele>9.27</ele>
        <time>2016-07-22T09:52:29Z</time>
      </trkpt>
      <trkpt lat="43.01282" lon="3.03487">
        <ele>11.19</ele>
        <time>2016-07-22T09:52:45Z</time>
      </trkpt>
      <trkpt lat="43.01293" lon="3.0347">
        <ele>13.6</ele>
        <time>2016-07-22T09:53:00Z</time>
      </trkpt>
      <trkpt lat="43.01306" lon="3.03448">
        <ele>16</ele>
        <time>2016-07-22T09:53:15Z</time>
      </trkpt>
      <trkpt lat="43.01319" lon="3.03425">
        <ele>17.44</ele>
        <time>2016-07-22T09:53:31Z</time>
      </trkpt>
      <trkpt lat="43.01321" lon="3.03422">
        <ele>16.96</ele>
        <time>2016-07-22T09:53:46Z</time>
      </trkpt>
      <trkpt lat="43.01324" lon="3.03422">
        <ele>17.92</ele>
        <time>2016-07-22T09:54:04Z</time>
      </trkpt>
      <trkpt lat="43.01326" lon="3.03425">
        <ele>16.96</ele>
        <time>2016-07-22T09:54:24Z</time>
      </trkpt>
      <trkpt lat="43.01322" lon="3.03422">
        <ele>17.44</ele>
        <time>2016-07-22T09:54:43Z</time>
      </trkpt>
      <trkpt lat="43.01321" lon="3.03413">
        <ele>17.92</ele>
        <time>2016-07-22T09:55:00Z</time>
      </trkpt>
      <trkpt lat="43.01321" lon="3.03386">
        <ele>19.84</ele>
        <time>2016-07-22T09:55:16Z</time>
      </trkpt>
      <trkpt lat="43.01321" lon="3.03373">
        <ele>19.36</ele>
        <time>2016-07-22T09:55:30Z</time>
      </trkpt>
      <trkpt lat="43.0132" lon="3.03363">
        <ele>20.32</ele>
        <time>2016-07-22T09:55:36Z</time>
      </trkpt>
      <trkpt lat="43.01315" lon="3.03328">
        <ele>22.73</ele>
        <time>2016-07-22T09:55:55Z</time>
      </trkpt>
      <trkpt lat="43.01314" lon="3.03325">
        <ele>22.73</ele>
        <time>2016-07-22T09:55:57Z</time>
      </trkpt>
      <trkpt lat="43.01318" lon="3.03313">
        <ele>24.17</ele>
        <time>2016-07-22T09:56:11Z</time>
      </trkpt>
      <trkpt lat="43.01316" lon="3.03309">
        <ele>24.17</ele>
        <time>2016-07-22T09:56:31Z</time>
      </trkpt>
      <trkpt lat="43.01306" lon="3.03287">
        <ele>27.05</ele>
        <time>2016-07-22T09:56:48Z</time>
      </trkpt>
      <trkpt lat="43.01302" lon="3.03271">
        <ele>28.98</ele>
        <time>2016-07-22T09:56:59Z</time>
      </trkpt>
      <trkpt lat="43.01297" lon="3.03248">
        <ele>31.38</ele>
        <time>2016-07-22T09:57:14Z</time>
      </trkpt>
      <trkpt lat="43.01297" lon="3.03246">
        <ele>31.86</ele>
        <time>2016-07-22T09:57:15Z</time>
      </trkpt>
      <trkpt lat="43.01291" lon="3.03224">
        <ele>34.26</ele>
        <time>2016-07-22T09:57:30Z</time>
      </trkpt>
      <trkpt lat="43.01289" lon="3.03209">
        <ele>34.74</ele>
        <time>2016-07-22T09:57:43Z</time>
      </trkpt>
      <trkpt lat="43.01287" lon="3.03186">
        <ele>37.15</ele>
        <time>2016-07-22T09:57:59Z</time>
      </trkpt>
      <trkpt lat="43.01276" lon="3.03164">
        <ele>40.03</ele>
        <time>2016-07-22T09:58:15Z</time>
      </trkpt>
      <trkpt lat="43.01266" lon="3.03144">
        <ele>42.44</ele>
        <time>2016-07-22T09:58:31Z</time>
      </trkpt>
      <trkpt lat="43.01252" lon="3.0313">
        <ele>45.32</ele>
        <time>2016-07-22T09:58:47Z</time>
      </trkpt>
      <trkpt lat="43.01235" lon="3.03122">
        <ele>47.72</ele>
        <time>2016-07-22T09:59:05Z</time>
      </trkpt>
      <trkpt lat="43.01226" lon="3.0312">
        <ele>49.16</ele>
        <time>2016-07-22T09:59:14Z</time>
      </trkpt>
      <trkpt lat="43.01206" lon="3.03119">
        <ele>53.01</ele>
        <time>2016-07-22T09:59:30Z</time>
      </trkpt>
      <trkpt lat="43.01189" lon="3.03113">
        <ele>53.97</ele>
        <time>2016-07-22T09:59:45Z</time>
      </trkpt>
      <trkpt lat="43.01171" lon="3.03097">
        <ele>57.34</ele>
        <time>2016-07-22T10:00:04Z</time>
      </trkpt>
      <trkpt lat="43.01161" lon="3.0308">
        <ele>59.26</ele>
        <time>2016-07-22T10:00:18Z</time>
      </trkpt>
      <trkpt lat="43.01158" lon="3.03078">
        <ele>59.26</ele>
        <time>2016-07-22T10:00:21Z</time>
      </trkpt>
      <trkpt lat="43.01145" lon="3.03089">
        <ele>60.7</ele>
        <time>2016-07-22T10:00:37Z</time>
      </trkpt>
      <trkpt lat="43.01143" lon="3.03121">
        <ele>63.1</ele>
        <time>2016-07-22T10:00:55Z</time>
      </trkpt>
      <trkpt lat="43.01145" lon="3.03146">
        <ele>63.58</ele>
        <time>2016-07-22T10:01:10Z</time>
      </trkpt>
      <trkpt lat="43.01142" lon="3.03166">
        <ele>65.03</ele>
        <time>2016-07-22T10:01:21Z</time>
      </trkpt>
      <trkpt lat="43.01136" lon="3.03185">
        <ele>66.47</ele>
        <time>2016-07-22T10:01:36Z</time>
      </trkpt>
      <trkpt lat="43.01139" lon="3.03195">
        <ele>66.95</ele>
        <time>2016-07-22T10:01:42Z</time>
      </trkpt>
      <trkpt lat="43.01139" lon="3.03202">
        <ele>67.43</ele>
        <time>2016-07-22T10:01:47Z</time>
      </trkpt>
      <trkpt lat="43.01139" lon="3.03209">
        <ele>68.39</ele>
        <time>2016-07-22T10:02:02Z</time>
      </trkpt>
      <trkpt lat="43.01138" lon="3.03209">
        <ele>67.91</ele>
        <time>2016-07-22T10:02:12Z</time>
      </trkpt>
      <trkpt lat="43.01137" lon="3.03209">
        <ele>68.39</ele>
        <time>2016-07-22T10:02:32Z</time>
      </trkpt>
      <trkpt lat="43.01137" lon="3.03211">
        <ele>68.39</ele>
        <time>2016-07-22T10:02:54Z</time>
      </trkpt>
      <trkpt lat="43.01137" lon="3.03213">
        <ele>68.39</ele>
        <time>2016-07-22T10:03:13Z</time>
      </trkpt>
      <trkpt lat="43.01137" lon="3.03216">
        <ele>68.39</ele>
        <time>2016-07-22T10:03:36Z</time>
      </trkpt>
      <trkpt lat="43.01135" lon="3.03217">
        <ele>68.39</ele>
        <time>2016-07-22T10:03:56Z</time>
      </trkpt>
      <trkpt lat="43.0113" lon="3.03213">
        <ele>68.87</ele>
        <time>2016-07-22T10:04:13Z</time>
      </trkpt>
      <trkpt lat="43.01131" lon="3.03206">
        <ele>68.39</ele>
        <time>2016-07-22T10:04:33Z</time>
      </trkpt>
      <trkpt lat="43.0113" lon="3.03198">
        <ele>68.87</ele>
        <time>2016-07-22T10:04:59Z</time>
      </trkpt>
      <trkpt lat="43.01131" lon="3.03197">
        <ele>69.35</ele>
        <time>2016-07-22T10:05:00Z</time>
      </trkpt>
      <trkpt lat="43.01131" lon="3.03191">
        <ele>68.39</ele>
        <time>2016-07-22T10:05:04Z</time>
      </trkpt>
      <trkpt lat="43.01134" lon="3.03169">
        <ele>66.47</ele>
        <time>2016-07-22T10:05:20Z</time>
      </trkpt>
      <trkpt lat="43.0114" lon="3.03149">
        <ele>65.51</ele>
        <time>2016-07-22T10:05:40Z</time>
      </trkpt>
      <trkpt lat="43.01139" lon="3.03136">
        <ele>65.99</ele>
        <time>2016-07-22T10:06:05Z</time>
      </trkpt>
      <trkpt lat="43.01139" lon="3.03109">
        <ele>64.07</ele>
        <time>2016-07-22T10:06:22Z</time>
      </trkpt>
      <trkpt lat="43.01145" lon="3.03078">
        <ele>62.14</ele>
        <time>2016-07-22T10:06:40Z</time>
      </trkpt>
      <trkpt lat="43.01155" lon="3.03061">
        <ele>62.62</ele>
        <time>2016-07-22T10:06:53Z</time>
      </trkpt>
      <trkpt lat="43.01155" lon="3.03053">
        <ele>63.58</ele>
        <time>2016-07-22T10:06:58Z</time>
      </trkpt>
      <trkpt lat="43.0115" lon="3.03034">
        <ele>64.55</ele>
        <time>2016-07-22T10:07:11Z</time>
      </trkpt>
      <trkpt lat="43.01147" lon="3.03033">
        <ele>60.7</ele>
        <time>2016-07-22T10:07:19Z</time>
      </trkpt>
      <trkpt lat="43.01147" lon="3.03033">
        <ele>69.35</ele>
        <time>2016-07-22T10:07:20Z</time>
      </trkpt>
      <trkpt lat="43.01146" lon="3.03034">
        <ele>60.7</ele>
        <time>2016-07-22T10:07:21Z</time>
      </trkpt>
      <trkpt lat="43.01146" lon="3.03034">
        <ele>67.91</ele>
        <time>2016-07-22T10:07:22Z</time>
      </trkpt>
      <trkpt lat="43.01145" lon="3.03035">
        <ele>61.18</ele>
        <time>2016-07-22T10:07:23Z</time>
      </trkpt>
      <trkpt lat="43.01145" lon="3.03034">
        <ele>69.35</ele>
        <time>2016-07-22T10:07:24Z</time>
      </trkpt>
      <trkpt lat="43.01145" lon="3.03034">
        <ele>64.55</ele>
        <time>2016-07-22T10:07:25Z</time>
      </trkpt>
      <trkpt lat="43.01144" lon="3.03035">
        <ele>64.07</ele>
        <time>2016-07-22T10:07:29Z</time>
      </trkpt>
      <trkpt lat="43.01124" lon="3.03048">
        <ele>64.55</ele>
        <time>2016-07-22T10:07:46Z</time>
      </trkpt>
      <trkpt lat="43.01111" lon="3.03058">
        <ele>65.99</ele>
        <time>2016-07-22T10:07:58Z</time>
      </trkpt>
      <trkpt lat="43.01097" lon="3.03065">
        <ele>67.43</ele>
        <time>2016-07-22T10:08:10Z</time>
      </trkpt>
      <trkpt lat="43.01093" lon="3.03069">
        <ele>67.91</ele>
        <time>2016-07-22T10:08:15Z</time>
      </trkpt>
      <trkpt lat="43.01089" lon="3.03072">
        <ele>68.87</ele>
        <time>2016-07-22T10:08:21Z</time>
      </trkpt>
      <trkpt lat="43.01069" lon="3.03078">
        <ele>70.79</ele>
        <time>2016-07-22T10:08:38Z</time>
      </trkpt>
      <trkpt lat="43.01068" lon="3.03078">
        <ele>70.79</ele>
        <time>2016-07-22T10:08:39Z</time>
      </trkpt>
      <trkpt lat="43.01044" lon="3.03081">
        <ele>72.24</ele>
        <time>2016-07-22T10:08:57Z</time>
      </trkpt>
      <trkpt lat="43.01023" lon="3.03068">
        <ele>73.68</ele>
        <time>2016-07-22T10:09:15Z</time>
      </trkpt>
      <trkpt lat="43.01004" lon="3.03049">
        <ele>75.12</ele>
        <time>2016-07-22T10:09:33Z</time>
      </trkpt>
      <trkpt lat="43.00986" lon="3.03031">
        <ele>77.52</ele>
        <time>2016-07-22T10:09:51Z</time>
      </trkpt>
      <trkpt lat="43.00982" lon="3.03028">
        <ele>77.52</ele>
        <time>2016-07-22T10:09:55Z</time>
      </trkpt>
      <trkpt lat="43.00968" lon="3.03003">
        <ele>78.97</ele>
        <time>2016-07-22T10:10:13Z</time>
      </trkpt>
      <trkpt lat="43.00952" lon="3.02987">
        <ele>79.45</ele>
        <time>2016-07-22T10:10:29Z</time>
      </trkpt>
      <trkpt lat="43.00936" lon="3.0297">
        <ele>79.93</ele>
        <time>2016-07-22T10:10:44Z</time>
      </trkpt>
      <trkpt lat="43.00922" lon="3.0295">
        <ele>80.89</ele>
        <time>2016-07-22T10:11:00Z</time>
      </trkpt>
      <trkpt lat="43.00901" lon="3.02924">
        <ele>82.81</ele>
        <time>2016-07-22T10:11:19Z</time>
      </trkpt>
      <trkpt lat="43.00881" lon="3.02899">
        <ele>82.33</ele>
        <time>2016-07-22T10:11:39Z</time>
      </trkpt>
      <trkpt lat="43.00864" lon="3.02876">
        <ele>82.81</ele>
        <time>2016-07-22T10:11:58Z</time>
      </trkpt>
      <trkpt lat="43.00844" lon="3.02852">
        <ele>83.77</ele>
        <time>2016-07-22T10:12:17Z</time>
      </trkpt>
      <trkpt lat="43.00822" lon="3.02831">
        <ele>84.73</ele>
        <time>2016-07-22T10:12:36Z</time>
      </trkpt>
      <trkpt lat="43.00797" lon="3.02809">
        <ele>85.21</ele>
        <time>2016-07-22T10:12:58Z</time>
      </trkpt>
      <trkpt lat="43.00776" lon="3.02786">
        <ele>87.14</ele>
        <time>2016-07-22T10:13:18Z</time>
      </trkpt>
      <trkpt lat="43.00758" lon="3.02763">
        <ele>88.1</ele>
        <time>2016-07-22T10:13:36Z</time>
      </trkpt>
      <trkpt lat="43.00744" lon="3.02733">
        <ele>89.06</ele>
        <time>2016-07-22T10:13:57Z</time>
      </trkpt>
      <trkpt lat="43.00731" lon="3.02709">
        <ele>89.54</ele>
        <time>2016-07-22T10:14:13Z</time>
      </trkpt>
      <trkpt lat="43.00717" lon="3.02686">
        <ele>89.54</ele>
        <time>2016-07-22T10:14:30Z</time>
      </trkpt>
      <trkpt lat="43.00702" lon="3.02662">
        <ele>90.02</ele>
        <time>2016-07-22T10:14:47Z</time>
      </trkpt>
      <trkpt lat="43.00692" lon="3.02649">
        <ele>90.98</ele>
        <time>2016-07-22T10:15:01Z</time>
      </trkpt>
      <trkpt lat="43.00677" lon="3.02625">
        <ele>91.94</ele>
        <time>2016-07-22T10:15:18Z</time>
      </trkpt>
      <trkpt lat="43.00659" lon="3.02609">
        <ele>91.46</ele>
        <time>2016-07-22T10:15:34Z</time>
      </trkpt>
      <trkpt lat="43.00631" lon="3.02592">
        <ele>91.46</ele>
        <time>2016-07-22T10:15:55Z</time>
      </trkpt>
      <trkpt lat="43.00608" lon="3.02581">
        <ele>91.94</ele>
        <time>2016-07-22T10:16:12Z</time>
      </trkpt>
      <trkpt lat="43.0059" lon="3.0257">
        <ele>91.94</ele>
        <time>2016-07-22T10:16:27Z</time>
      </trkpt>
      <trkpt lat="43.00562" lon="3.02554">
        <ele>92.9</ele>
        <time>2016-07-22T10:16:49Z</time>
      </trkpt>
      <trkpt lat="43.00554" lon="3.02549">
        <ele>92.9</ele>
        <time>2016-07-22T10:16:56Z</time>
      </trkpt>
      <trkpt lat="43.00547" lon="3.02546">
        <ele>92.42</ele>
        <time>2016-07-22T10:17:01Z</time>
      </trkpt>
      <trkpt lat="43.00521" lon="3.02533">
        <ele>92.9</ele>
        <time>2016-07-22T10:17:22Z</time>
      </trkpt>
      <trkpt lat="43.00502" lon="3.02516">
        <ele>92.42</ele>
        <time>2016-07-22T10:17:39Z</time>
      </trkpt>
      <trkpt lat="43.00491" lon="3.02487">
        <ele>91.94</ele>
        <time>2016-07-22T10:17:58Z</time>
      </trkpt>
      <trkpt lat="43.0048" lon="3.02458">
        <ele>91.94</ele>
        <time>2016-07-22T10:18:17Z</time>
      </trkpt>
      <trkpt lat="43.00477" lon="3.02453">
        <ele>91.46</ele>
        <time>2016-07-22T10:18:34Z</time>
      </trkpt>
      <trkpt lat="43.00475" lon="3.0245">
        <ele>92.42</ele>
        <time>2016-07-22T10:18:54Z</time>
      </trkpt>
      <trkpt lat="43.00471" lon="3.02445">
        <ele>90.5</ele>
        <time>2016-07-22T10:19:10Z</time>
      </trkpt>
      <trkpt lat="43.00471" lon="3.02445">
        <ele>94.35</ele>
        <time>2016-07-22T10:19:18Z</time>
      </trkpt>
      <trkpt lat="43.00471" lon="3.02445">
        <ele>94.35</ele>
        <time>2016-07-22T10:19:19Z</time>
      </trkpt>
      <trkpt lat="43.00471" lon="3.02446">
        <ele>91.94</ele>
        <time>2016-07-22T10:19:21Z</time>
      </trkpt>
      <trkpt lat="43.00471" lon="3.02446">
        <ele>85.69</ele>
        <time>2016-07-22T10:19:34Z</time>
      </trkpt>
      <trkpt lat="43.00471" lon="3.02446">
        <ele>96.27</ele>
        <time>2016-07-22T10:19:35Z</time>
      </trkpt>
      <trkpt lat="43.00471" lon="3.02446">
        <ele>92.9</ele>
        <time>2016-07-22T10:19:36Z</time>
      </trkpt>
      <trkpt lat="43.00471" lon="3.02446">
        <ele>91.94</ele>
        <time>2016-07-22T10:19:38Z</time>
      </trkpt>
      <trkpt lat="43.0047" lon="3.02446">
        <ele>92.9</ele>
        <time>2016-07-22T10:19:44Z</time>
      </trkpt>
      <trkpt lat="43.00469" lon="3.02445">
        <ele>92.9</ele>
        <time>2016-07-22T10:19:48Z</time>
      </trkpt>
      <trkpt lat="43.00463" lon="3.02424">
        <ele>92.9</ele>
        <time>2016-07-22T10:20:03Z</time>
      </trkpt>
      <trkpt lat="43.00462" lon="3.02423">
        <ele>92.42</ele>
        <time>2016-07-22T10:20:04Z</time>
      </trkpt>
      <trkpt lat="43.00457" lon="3.02408">
        <ele>92.9</ele>
        <time>2016-07-22T10:20:14Z</time>
      </trkpt>
      <trkpt lat="43.00439" lon="3.02387">
        <ele>92.9</ele>
        <time>2016-07-22T10:20:31Z</time>
      </trkpt>
      <trkpt lat="43.00416" lon="3.02379">
        <ele>91.46</ele>
        <time>2016-07-22T10:20:48Z</time>
      </trkpt>
      <trkpt lat="43.00391" lon="3.02387">
        <ele>90.98</ele>
        <time>2016-07-22T10:21:06Z</time>
      </trkpt>
      <trkpt lat="43.00384" lon="3.02387">
        <ele>90.98</ele>
        <time>2016-07-22T10:21:24Z</time>
      </trkpt>
      <trkpt lat="43.00368" lon="3.02383">
        <ele>90.5</ele>
        <time>2016-07-22T10:21:38Z</time>
      </trkpt>
      <trkpt lat="43.00354" lon="3.02366">
        <ele>90.5</ele>
        <time>2016-07-22T10:21:55Z</time>
      </trkpt>
      <trkpt lat="43.00347" lon="3.02353">
        <ele>90.02</ele>
        <time>2016-07-22T10:22:12Z</time>
      </trkpt>
      <trkpt lat="43.00346" lon="3.02352">
        <ele>90.5</ele>
        <time>2016-07-22T10:22:45Z</time>
      </trkpt>
      <trkpt lat="43.00344" lon="3.02351">
        <ele>90.5</ele>
        <time>2016-07-22T10:23:15Z</time>
      </trkpt>
      <trkpt lat="43.00343" lon="3.0235">
        <ele>90.5</ele>
        <time>2016-07-22T10:23:43Z</time>
      </trkpt>
      <trkpt lat="43.00339" lon="3.02345">
        <ele>90.5</ele>
        <time>2016-07-22T10:23:57Z</time>
      </trkpt>
      <trkpt lat="43.00326" lon="3.02323">
        <ele>89.54</ele>
        <time>2016-07-22T10:24:17Z</time>
      </trkpt>
      <trkpt lat="43.00311" lon="3.02298">
        <ele>88.1</ele>
        <time>2016-07-22T10:24:36Z</time>
      </trkpt>
      <trkpt lat="43.00301" lon="3.0227">
        <ele>86.18</ele>
        <time>2016-07-22T10:24:54Z</time>
      </trkpt>
      <trkpt lat="43.003" lon="3.02268">
        <ele>85.69</ele>
        <time>2016-07-22T10:24:55Z</time>
      </trkpt>
      <trkpt lat="43.003" lon="3.02251">
        <ele>85.21</ele>
        <time>2016-07-22T10:25:05Z</time>
      </trkpt>
      <trkpt lat="43.00295" lon="3.02243">
        <ele>83.77</ele>
        <time>2016-07-22T10:25:11Z</time>
      </trkpt>
      <trkpt lat="43.00287" lon="3.02219">
        <ele>82.33</ele>
        <time>2016-07-22T10:25:27Z</time>
      </trkpt>
      <trkpt lat="43.00286" lon="3.02204">
        <ele>80.89</ele>
        <time>2016-07-22T10:25:40Z</time>
      </trkpt>
      <trkpt lat="43.00281" lon="3.0219">
        <ele>78.48</ele>
        <time>2016-07-22T10:25:53Z</time>
      </trkpt>
      <trkpt lat="43.00274" lon="3.02179">
        <ele>75.6</ele>
        <time>2016-07-22T10:26:05Z</time>
      </trkpt>
      <trkpt lat="43.0027" lon="3.0217">
        <ele>74.16</ele>
        <time>2016-07-22T10:26:13Z</time>
      </trkpt>
      <trkpt lat="43.00255" lon="3.02164">
        <ele>76.08</ele>
        <time>2016-07-22T10:26:30Z</time>
      </trkpt>
      <trkpt lat="43.00254" lon="3.02165">
        <ele>76.56</ele>
        <time>2016-07-22T10:26:31Z</time>
      </trkpt>
      <trkpt lat="43.00245" lon="3.02176">
        <ele>78</ele>
        <time>2016-07-22T10:26:43Z</time>
      </trkpt>
      <trkpt lat="43.0024" lon="3.02174">
        <ele>78.97</ele>
        <time>2016-07-22T10:26:48Z</time>
      </trkpt>
      <trkpt lat="43.00233" lon="3.02169">
        <ele>80.89</ele>
        <time>2016-07-22T10:26:57Z</time>
      </trkpt>
      <trkpt lat="43.00219" lon="3.0217">
        <ele>82.81</ele>
        <time>2016-07-22T10:27:12Z</time>
      </trkpt>
      <trkpt lat="43.00212" lon="3.02172">
        <ele>83.77</ele>
        <time>2016-07-22T10:27:18Z</time>
      </trkpt>
      <trkpt lat="43.0021" lon="3.02172">
        <ele>84.25</ele>
        <time>2016-07-22T10:27:20Z</time>
      </trkpt>
      <trkpt lat="43.00207" lon="3.02172">
        <ele>85.21</ele>
        <time>2016-07-22T10:27:23Z</time>
      </trkpt>
      <trkpt lat="43.00204" lon="3.02172">
        <ele>85.69</ele>
        <time>2016-07-22T10:27:26Z</time>
      </trkpt>
      <trkpt lat="43.00192" lon="3.02173">
        <ele>86.66</ele>
        <time>2016-07-22T10:27:35Z</time>
      </trkpt>
      <trkpt lat="43.00188" lon="3.02168">
        <ele>86.66</ele>
        <time>2016-07-22T10:27:39Z</time>
      </trkpt>
      <trkpt lat="43.00181" lon="3.02154">
        <ele>87.14</ele>
        <time>2016-07-22T10:27:49Z</time>
      </trkpt>
      <trkpt lat="43.00178" lon="3.02146">
        <ele>87.62</ele>
        <time>2016-07-22T10:27:54Z</time>
      </trkpt>
      <trkpt lat="43.00177" lon="3.02142">
        <ele>87.14</ele>
        <time>2016-07-22T10:27:57Z</time>
      </trkpt>
      <trkpt lat="43.00172" lon="3.02116">
        <ele>87.14</ele>
        <time>2016-07-22T10:28:14Z</time>
      </trkpt>
      <trkpt lat="43.00172" lon="3.02113">
        <ele>87.14</ele>
        <time>2016-07-22T10:28:16Z</time>
      </trkpt>
      <trkpt lat="43.00171" lon="3.02108">
        <ele>87.14</ele>
        <time>2016-07-22T10:28:19Z</time>
      </trkpt>
      <trkpt lat="43.00175" lon="3.02082">
        <ele>87.62</ele>
        <time>2016-07-22T10:28:36Z</time>
      </trkpt>
      <trkpt lat="43.00178" lon="3.02057">
        <ele>88.58</ele>
        <time>2016-07-22T10:28:52Z</time>
      </trkpt>
      <trkpt lat="43.00169" lon="3.02042">
        <ele>89.54</ele>
        <time>2016-07-22T10:29:02Z</time>
      </trkpt>
      <trkpt lat="43.0015" lon="3.02019">
        <ele>90.98</ele>
        <time>2016-07-22T10:29:21Z</time>
      </trkpt>
      <trkpt lat="43.00132" lon="3.02">
        <ele>90.98</ele>
        <time>2016-07-22T10:29:37Z</time>
      </trkpt>
      <trkpt lat="43.00105" lon="3.01986">
        <ele>90.5</ele>
        <time>2016-07-22T10:29:58Z</time>
      </trkpt>
      <trkpt lat="43.0008" lon="3.01972">
        <ele>90.98</ele>
        <time>2016-07-22T10:30:19Z</time>
      </trkpt>
      <trkpt lat="43.00066" lon="3.01957">
        <ele>90.02</ele>
        <time>2016-07-22T10:30:36Z</time>
      </trkpt>
      <trkpt lat="43.00051" lon="3.01937">
        <ele>89.54</ele>
        <time>2016-07-22T10:30:53Z</time>
      </trkpt>
      <trkpt lat="43.0005" lon="3.01936">
        <ele>89.06</ele>
        <time>2016-07-22T10:30:54Z</time>
      </trkpt>
      <trkpt lat="43.00041" lon="3.01924">
        <ele>88.58</ele>
        <time>2016-07-22T10:31:13Z</time>
      </trkpt>
      <trkpt lat="43.0004" lon="3.01925">
        <ele>88.1</ele>
        <time>2016-07-22T10:31:31Z</time>
      </trkpt>
      <trkpt lat="43.00023" lon="3.01895">
        <ele>88.1</ele>
        <time>2016-07-22T10:31:52Z</time>
      </trkpt>
      <trkpt lat="43.00013" lon="3.01863">
        <ele>87.62</ele>
        <time>2016-07-22T10:32:11Z</time>
      </trkpt>
      <trkpt lat="42.99995" lon="3.01832">
        <ele>87.14</ele>
        <time>2016-07-22T10:32:33Z</time>
      </trkpt>
      <trkpt lat="42.99983" lon="3.01809">
        <ele>86.66</ele>
        <time>2016-07-22T10:32:48Z</time>
      </trkpt>
      <trkpt lat="42.99971" lon="3.0178">
        <ele>87.14</ele>
        <time>2016-07-22T10:33:06Z</time>
      </trkpt>
      <trkpt lat="42.99963" lon="3.01743">
        <ele>86.66</ele>
        <time>2016-07-22T10:33:27Z</time>
      </trkpt>
      <trkpt lat="42.99963" lon="3.01714">
        <ele>88.1</ele>
        <time>2016-07-22T10:33:44Z</time>
      </trkpt>
      <trkpt lat="42.99969" lon="3.01676">
        <ele>88.58</ele>
        <time>2016-07-22T10:34:05Z</time>
      </trkpt>
      <trkpt lat="42.9997" lon="3.01671">
        <ele>88.58</ele>
        <time>2016-07-22T10:34:08Z</time>
      </trkpt>
      <trkpt lat="42.99968" lon="3.01637">
        <ele>88.1</ele>
        <time>2016-07-22T10:34:26Z</time>
      </trkpt>
      <trkpt lat="42.99972" lon="3.01604">
        <ele>87.14</ele>
        <time>2016-07-22T10:34:45Z</time>
      </trkpt>
      <trkpt lat="42.99974" lon="3.01585">
        <ele>87.62</ele>
        <time>2016-07-22T10:34:57Z</time>
      </trkpt>
      <trkpt lat="42.99963" lon="3.01544">
        <ele>88.1</ele>
        <time>2016-07-22T10:35:19Z</time>
      </trkpt>
      <trkpt lat="42.99956" lon="3.01514">
        <ele>87.62</ele>
        <time>2016-07-22T10:35:34Z</time>
      </trkpt>
      <trkpt lat="42.9995" lon="3.01485">
        <ele>85.69</ele>
        <time>2016-07-22T10:35:49Z</time>
      </trkpt>
      <trkpt lat="42.9995" lon="3.01481">
        <ele>84.73</ele>
        <time>2016-07-22T10:35:51Z</time>
      </trkpt>
      <trkpt lat="42.99946" lon="3.01465">
        <ele>86.18</ele>
        <time>2016-07-22T10:36:06Z</time>
      </trkpt>
      <trkpt lat="42.99939" lon="3.01459">
        <ele>85.21</ele>
        <time>2016-07-22T10:36:23Z</time>
      </trkpt>
      <trkpt lat="42.99939" lon="3.01454">
        <ele>85.21</ele>
        <time>2016-07-22T10:36:47Z</time>
      </trkpt>
      <trkpt lat="42.99939" lon="3.01454">
        <ele>88.1</ele>
        <time>2016-07-22T10:36:48Z</time>
      </trkpt>
      <trkpt lat="42.99939" lon="3.01454">
        <ele>83.29</ele>
        <time>2016-07-22T10:36:49Z</time>
      </trkpt>
      <trkpt lat="42.99939" lon="3.01454">
        <ele>87.62</ele>
        <time>2016-07-22T10:36:51Z</time>
      </trkpt>
      <trkpt lat="42.99939" lon="3.01454">
        <ele>84.25</ele>
        <time>2016-07-22T10:36:52Z</time>
      </trkpt>
      <trkpt lat="42.99939" lon="3.01454">
        <ele>80.89</ele>
        <time>2016-07-22T10:36:53Z</time>
      </trkpt>
      <trkpt lat="42.99939" lon="3.01454">
        <ele>87.14</ele>
        <time>2016-07-22T10:36:54Z</time>
      </trkpt>
      <trkpt lat="42.99939" lon="3.01454">
        <ele>82.81</ele>
        <time>2016-07-22T10:36:56Z</time>
      </trkpt>
      <trkpt lat="42.99939" lon="3.01454">
        <ele>86.18</ele>
        <time>2016-07-22T10:36:57Z</time>
      </trkpt>
      <trkpt lat="42.99939" lon="3.01454">
        <ele>86.18</ele>
        <time>2016-07-22T10:36:58Z</time>
      </trkpt>
      <trkpt lat="42.99939" lon="3.01454">
        <ele>84.25</ele>
        <time>2016-07-22T10:37:00Z</time>
      </trkpt>
      <trkpt lat="42.99938" lon="3.01454">
        <ele>80.89</ele>
        <time>2016-07-22T10:37:01Z</time>
      </trkpt>
      <trkpt lat="42.99938" lon="3.01454">
        <ele>84.25</ele>
        <time>2016-07-22T10:37:02Z</time>
      </trkpt>
      <trkpt lat="42.99938" lon="3.01454">
        <ele>91.46</ele>
        <time>2016-07-22T10:37:03Z</time>
      </trkpt>
      <trkpt lat="42.99938" lon="3.01454">
        <ele>80.89</ele>
        <time>2016-07-22T10:37:04Z</time>
      </trkpt>
      <trkpt lat="42.99938" lon="3.01454">
        <ele>84.73</ele>
        <time>2016-07-22T10:37:05Z</time>
      </trkpt>
      <trkpt lat="42.9994" lon="3.01451">
        <ele>85.21</ele>
        <time>2016-07-22T10:37:18Z</time>
      </trkpt>
      <trkpt lat="42.99943" lon="3.0145">
        <ele>84.73</ele>
        <time>2016-07-22T10:37:21Z</time>
      </trkpt>
      <trkpt lat="42.99954" lon="3.01436">
        <ele>84.25</ele>
        <time>2016-07-22T10:37:36Z</time>
      </trkpt>
      <trkpt lat="42.9997" lon="3.01417">
        <ele>86.18</ele>
        <time>2016-07-22T10:37:54Z</time>
      </trkpt>
      <trkpt lat="42.99971" lon="3.01416">
        <ele>86.66</ele>
        <time>2016-07-22T10:37:55Z</time>
      </trkpt>
      <trkpt lat="42.9998" lon="3.01396">
        <ele>87.14</ele>
        <time>2016-07-22T10:38:10Z</time>
      </trkpt>
      <trkpt lat="42.99997" lon="3.01379">
        <ele>89.54</ele>
        <time>2016-07-22T10:38:27Z</time>
      </trkpt>
      <trkpt lat="43.00013" lon="3.01361">
        <ele>90.5</ele>
        <time>2016-07-22T10:38:44Z</time>
      </trkpt>
      <trkpt lat="43.00029" lon="3.01343">
        <ele>91.46</ele>
        <time>2016-07-22T10:39:00Z</time>
      </trkpt>
      <trkpt lat="43.00034" lon="3.0134">
        <ele>90.5</ele>
        <time>2016-07-22T10:39:04Z</time>
      </trkpt>
      <trkpt lat="43.00037" lon="3.01338">
        <ele>91.94</ele>
        <time>2016-07-22T10:39:07Z</time>
      </trkpt>
      <trkpt lat="43.00051" lon="3.01324">
        <ele>91.46</ele>
        <time>2016-07-22T10:39:21Z</time>
      </trkpt>
      <trkpt lat="43.00059" lon="3.01313">
        <ele>92.42</ele>
        <time>2016-07-22T10:39:30Z</time>
      </trkpt>
      <trkpt lat="43.00073" lon="3.01289">
        <ele>92.9</ele>
        <time>2016-07-22T10:39:47Z</time>
      </trkpt>
      <trkpt lat="43.00086" lon="3.0127">
        <ele>93.39</ele>
        <time>2016-07-22T10:40:01Z</time>
      </trkpt>
      <trkpt lat="43.00104" lon="3.01265">
        <ele>94.83</ele>
        <time>2016-07-22T10:40:16Z</time>
      </trkpt>
      <trkpt lat="43.00122" lon="3.01251">
        <ele>95.31</ele>
        <time>2016-07-22T10:40:34Z</time>
      </trkpt>
      <trkpt lat="43.00139" lon="3.01223">
        <ele>95.31</ele>
        <time>2016-07-22T10:40:53Z</time>
      </trkpt>
      <trkpt lat="43.00146" lon="3.01214">
        <ele>94.35</ele>
        <time>2016-07-22T10:41:00Z</time>
      </trkpt>
      <trkpt lat="43.00147" lon="3.01208">
        <ele>95.79</ele>
        <time>2016-07-22T10:41:03Z</time>
      </trkpt>
      <trkpt lat="43.00155" lon="3.0119">
        <ele>95.31</ele>
        <time>2016-07-22T10:41:12Z</time>
      </trkpt>
      <trkpt lat="43.0017" lon="3.01168">
        <ele>96.27</ele>
        <time>2016-07-22T10:41:26Z</time>
      </trkpt>
      <trkpt lat="43.00188" lon="3.0115">
        <ele>97.23</ele>
        <time>2016-07-22T10:41:44Z</time>
      </trkpt>
      <trkpt lat="43.002" lon="3.01128">
        <ele>98.19</ele>
        <time>2016-07-22T10:41:59Z</time>
      </trkpt>
      <trkpt lat="43.00202" lon="3.01125">
        <ele>98.67</ele>
        <time>2016-07-22T10:42:01Z</time>
      </trkpt>
      <trkpt lat="43.0022" lon="3.01104">
        <ele>99.15</ele>
        <time>2016-07-22T10:42:18Z</time>
      </trkpt>
      <trkpt lat="43.0023" lon="3.01075">
        <ele>99.63</ele>
        <time>2016-07-22T10:42:34Z</time>
      </trkpt>
      <trkpt lat="43.00235" lon="3.01044">
        <ele>100.6</ele>
        <time>2016-07-22T10:42:52Z</time>
      </trkpt>
      <trkpt lat="43.00238" lon="3.01027">
        <ele>101.08</ele>
        <time>2016-07-22T10:43:02Z</time>
      </trkpt>
      <trkpt lat="43.00248" lon="3.01011">
        <ele>102.52</ele>
        <time>2016-07-22T10:43:17Z</time>
      </trkpt>
      <trkpt lat="43.0025" lon="3.01009">
        <ele>102.52</ele>
        <time>2016-07-22T10:43:19Z</time>
      </trkpt>
      <trkpt lat="43.00257" lon="3.00983">
        <ele>103.48</ele>
        <time>2016-07-22T10:43:34Z</time>
      </trkpt>
      <trkpt lat="43.00257" lon="3.0098">
        <ele>103.96</ele>
        <time>2016-07-22T10:43:36Z</time>
      </trkpt>
      <trkpt lat="43.00255" lon="3.00972">
        <ele>103.48</ele>
        <time>2016-07-22T10:43:41Z</time>
      </trkpt>
      <trkpt lat="43.00263" lon="3.00951">
        <ele>104.44</ele>
        <time>2016-07-22T10:43:56Z</time>
      </trkpt>
      <trkpt lat="43.00273" lon="3.00928">
        <ele>104.92</ele>
        <time>2016-07-22T10:44:11Z</time>
      </trkpt>
      <trkpt lat="43.00274" lon="3.0092">
        <ele>103.96</ele>
        <time>2016-07-22T10:44:15Z</time>
      </trkpt>
      <trkpt lat="43.00282" lon="3.00893">
        <ele>107.32</ele>
        <time>2016-07-22T10:44:30Z</time>
      </trkpt>
      <trkpt lat="43.00284" lon="3.00882">
        <ele>106.84</ele>
        <time>2016-07-22T10:44:36Z</time>
      </trkpt>
      <trkpt lat="43.0029" lon="3.00859">
        <ele>107.32</ele>
        <time>2016-07-22T10:44:49Z</time>
      </trkpt>
      <trkpt lat="43.00292" lon="3.00853">
        <ele>106.84</ele>
        <time>2016-07-22T10:44:53Z</time>
      </trkpt>
      <trkpt lat="43.00294" lon="3.00842">
        <ele>107.81</ele>
        <time>2016-07-22T10:44:59Z</time>
      </trkpt>
      <trkpt lat="43.00303" lon="3.00811">
        <ele>106.84</ele>
        <time>2016-07-22T10:45:18Z</time>
      </trkpt>
      <trkpt lat="43.00308" lon="3.00802">
        <ele>108.77</ele>
        <time>2016-07-22T10:45:24Z</time>
      </trkpt>
      <trkpt lat="43.00317" lon="3.00791">
        <ele>110.21</ele>
        <time>2016-07-22T10:45:34Z</time>
      </trkpt>
      <trkpt lat="43.00319" lon="3.00788">
        <ele>109.25</ele>
        <time>2016-07-22T10:45:37Z</time>
      </trkpt>
      <trkpt lat="43.0033" lon="3.00773">
        <ele>108.77</ele>
        <time>2016-07-22T10:45:48Z</time>
      </trkpt>
      <trkpt lat="43.00331" lon="3.0077">
        <ele>105.4</ele>
        <time>2016-07-22T10:45:50Z</time>
      </trkpt>
      <trkpt lat="43.00332" lon="3.00769">
        <ele>105.4</ele>
        <time>2016-07-22T10:45:51Z</time>
      </trkpt>
      <trkpt lat="43.00333" lon="3.00768">
        <ele>109.73</ele>
        <time>2016-07-22T10:45:52Z</time>
      </trkpt>
      <trkpt lat="43.00334" lon="3.00766">
        <ele>107.81</ele>
        <time>2016-07-22T10:45:53Z</time>
      </trkpt>
      <trkpt lat="43.00342" lon="3.00755">
        <ele>103</ele>
        <time>2016-07-22T10:46:02Z</time>
      </trkpt>
      <trkpt lat="43.00343" lon="3.00753">
        <ele>111.17</ele>
        <time>2016-07-22T10:46:03Z</time>
      </trkpt>
      <trkpt lat="43.00344" lon="3.00752">
        <ele>107.81</ele>
        <time>2016-07-22T10:46:04Z</time>
      </trkpt>
      <trkpt lat="43.00349" lon="3.00747">
        <ele>105.88</ele>
        <time>2016-07-22T10:46:09Z</time>
      </trkpt>
      <trkpt lat="43.00351" lon="3.00746">
        <ele>112.61</ele>
        <time>2016-07-22T10:46:10Z</time>
      </trkpt>
      <trkpt lat="43.00352" lon="3.00745">
        <ele>108.77</ele>
        <time>2016-07-22T10:46:11Z</time>
      </trkpt>
      <trkpt lat="43.00353" lon="3.00744">
        <ele>104.44</ele>
        <time>2016-07-22T10:46:12Z</time>
      </trkpt>
      <trkpt lat="43.00354" lon="3.00743">
        <ele>111.65</ele>
        <time>2016-07-22T10:46:13Z</time>
      </trkpt>
      <trkpt lat="43.00357" lon="3.00741">
        <ele>108.29</ele>
        <time>2016-07-22T10:46:16Z</time>
      </trkpt>
      <trkpt lat="43.00358" lon="3.00741">
        <ele>104.92</ele>
        <time>2016-07-22T10:46:20Z</time>
      </trkpt>
      <trkpt lat="43.00357" lon="3.00741">
        <ele>110.69</ele>
        <time>2016-07-22T10:46:21Z</time>
      </trkpt>
      <trkpt lat="43.00358" lon="3.00742">
        <ele>107.81</ele>
        <time>2016-07-22T10:46:23Z</time>
      </trkpt>
      <trkpt lat="43.00362" lon="3.0074">
        <ele>108.77</ele>
        <time>2016-07-22T10:46:35Z</time>
      </trkpt>
      <trkpt lat="43.00369" lon="3.00732">
        <ele>109.73</ele>
        <time>2016-07-22T10:46:51Z</time>
      </trkpt>
      <trkpt lat="43.0037" lon="3.0073">
        <ele>109.73</ele>
        <time>2016-07-22T10:46:56Z</time>
      </trkpt>
      <trkpt lat="43.0037" lon="3.00731">
        <ele>109.25</ele>
        <time>2016-07-22T10:47:13Z</time>
      </trkpt>
      <trkpt lat="43.00377" lon="3.00717">
        <ele>109.73</ele>
        <time>2016-07-22T10:47:23Z</time>
      </trkpt>
      <trkpt lat="43.0038" lon="3.00713">
        <ele>110.21</ele>
        <time>2016-07-22T10:47:27Z</time>
      </trkpt>
      <trkpt lat="43.00396" lon="3.00699">
        <ele>109.25</ele>
        <time>2016-07-22T10:47:44Z</time>
      </trkpt>
      <trkpt lat="43.00412" lon="3.0068">
        <ele>109.25</ele>
        <time>2016-07-22T10:48:02Z</time>
      </trkpt>
      <trkpt lat="43.00426" lon="3.00659">
        <ele>110.21</ele>
        <time>2016-07-22T10:48:19Z</time>
      </trkpt>
      <trkpt lat="43.00444" lon="3.00631">
        <ele>110.21</ele>
        <time>2016-07-22T10:48:35Z</time>
      </trkpt>
      <trkpt lat="43.0045" lon="3.00625">
        <ele>109.25</ele>
        <time>2016-07-22T10:48:41Z</time>
      </trkpt>
      <trkpt lat="43.00461" lon="3.00605">
        <ele>110.21</ele>
        <time>2016-07-22T10:48:53Z</time>
      </trkpt>
      <trkpt lat="43.00477" lon="3.00586">
        <ele>109.73</ele>
        <time>2016-07-22T10:49:08Z</time>
      </trkpt>
      <trkpt lat="43.00478" lon="3.00584">
        <ele>109.73</ele>
        <time>2016-07-22T10:49:09Z</time>
      </trkpt>
      <trkpt lat="43.00487" lon="3.00573">
        <ele>109.73</ele>
        <time>2016-07-22T10:49:17Z</time>
      </trkpt>
      <trkpt lat="43.00498" lon="3.00547">
        <ele>110.69</ele>
        <time>2016-07-22T10:49:33Z</time>
      </trkpt>
      <trkpt lat="43.00508" lon="3.00515">
        <ele>110.69</ele>
        <time>2016-07-22T10:49:51Z</time>
      </trkpt>
      <trkpt lat="43.00519" lon="3.00481">
        <ele>110.69</ele>
        <time>2016-07-22T10:50:10Z</time>
      </trkpt>
      <trkpt lat="43.00531" lon="3.00452">
        <ele>111.17</ele>
        <time>2016-07-22T10:50:27Z</time>
      </trkpt>
      <trkpt lat="43.00539" lon="3.00419">
        <ele>110.69</ele>
        <time>2016-07-22T10:50:44Z</time>
      </trkpt>
      <trkpt lat="43.00546" lon="3.00386">
        <ele>111.17</ele>
        <time>2016-07-22T10:51:01Z</time>
      </trkpt>
      <trkpt lat="43.00551" lon="3.00357">
        <ele>111.65</ele>
        <time>2016-07-22T10:51:18Z</time>
      </trkpt>
      <trkpt lat="43.00551" lon="3.00345">
        <ele>111.17</ele>
        <time>2016-07-22T10:51:24Z</time>
      </trkpt>
      <trkpt lat="43.00543" lon="3.00306">
        <ele>110.69</ele>
        <time>2016-07-22T10:51:45Z</time>
      </trkpt>
      <trkpt lat="43.00532" lon="3.00273">
        <ele>110.21</ele>
        <time>2016-07-22T10:52:02Z</time>
      </trkpt>
      <trkpt lat="43.00521" lon="3.00236">
        <ele>110.69</ele>
        <time>2016-07-22T10:52:21Z</time>
      </trkpt>
      <trkpt lat="43.00515" lon="3.00202">
        <ele>111.17</ele>
        <time>2016-07-22T10:52:40Z</time>
      </trkpt>
      <trkpt lat="43.00513" lon="3.0019">
        <ele>111.65</ele>
        <time>2016-07-22T10:52:47Z</time>
      </trkpt>
      <trkpt lat="43.00506" lon="3.0016">
        <ele>113.09</ele>
        <time>2016-07-22T10:53:04Z</time>
      </trkpt>
      <trkpt lat="43.00504" lon="3.00129">
        <ele>112.61</ele>
        <time>2016-07-22T10:53:22Z</time>
      </trkpt>
      <trkpt lat="43.00499" lon="3.0013">
        <ele>111.65</ele>
        <time>2016-07-22T10:53:45Z</time>
      </trkpt>
      <trkpt lat="43.00494" lon="3.00123">
        <ele>111.65</ele>
        <time>2016-07-22T10:53:55Z</time>
      </trkpt>
      <trkpt lat="43.00478" lon="3.0012">
        <ele>112.13</ele>
        <time>2016-07-22T10:54:13Z</time>
      </trkpt>
      <trkpt lat="43.00477" lon="3.00121">
        <ele>108.77</ele>
        <time>2016-07-22T10:54:17Z</time>
      </trkpt>
      <trkpt lat="43.00477" lon="3.00121">
        <ele>113.09</ele>
        <time>2016-07-22T10:54:18Z</time>
      </trkpt>
      <trkpt lat="43.00477" lon="3.00122">
        <ele>107.32</ele>
        <time>2016-07-22T10:54:20Z</time>
      </trkpt>
      <trkpt lat="43.00477" lon="3.00122">
        <ele>115.5</ele>
        <time>2016-07-22T10:54:21Z</time>
      </trkpt>
      <trkpt lat="43.00477" lon="3.00121">
        <ele>112.13</ele>
        <time>2016-07-22T10:54:22Z</time>
      </trkpt>
      <trkpt lat="43.00465" lon="3.00118">
        <ele>113.57</ele>
        <time>2016-07-22T10:54:36Z</time>
      </trkpt>
      <trkpt lat="43.00454" lon="3.00117">
        <ele>114.53</ele>
        <time>2016-07-22T10:54:47Z</time>
      </trkpt>
      <trkpt lat="43.00452" lon="3.00107">
        <ele>115.5</ele>
        <time>2016-07-22T10:54:59Z</time>
      </trkpt>
      <trkpt lat="43.00451" lon="3.00104">
        <ele>115.5</ele>
        <time>2016-07-22T10:55:17Z</time>
      </trkpt>
      <trkpt lat="43.00449" lon="3.00101">
        <ele>116.94</ele>
        <time>2016-07-22T10:55:45Z</time>
      </trkpt>
      <trkpt lat="43.00456" lon="3.00104">
        <ele>115.01</ele>
        <time>2016-07-22T10:55:53Z</time>
      </trkpt>
      <trkpt lat="43.00468" lon="3.00104">
        <ele>114.05</ele>
        <time>2016-07-22T10:56:02Z</time>
      </trkpt>
      <trkpt lat="43.00495" lon="3.00096">
        <ele>111.65</ele>
        <time>2016-07-22T10:56:24Z</time>
      </trkpt>
      <trkpt lat="43.00498" lon="3.00094">
        <ele>111.65</ele>
        <time>2016-07-22T10:56:27Z</time>
      </trkpt>
      <trkpt lat="43.00497" lon="3.00084">
        <ele>111.65</ele>
        <time>2016-07-22T10:56:32Z</time>
      </trkpt>
      <trkpt lat="43.00494" lon="3.00052">
        <ele>110.21</ele>
        <time>2016-07-22T10:56:49Z</time>
      </trkpt>
      <trkpt lat="43.00495" lon="3.00041">
        <ele>109.73</ele>
        <time>2016-07-22T10:57:02Z</time>
      </trkpt>
      <trkpt lat="43.00495" lon="3.00009">
        <ele>108.77</ele>
        <time>2016-07-22T10:57:21Z</time>
      </trkpt>
      <trkpt lat="43.0049" lon="2.99982">
        <ele>108.29</ele>
        <time>2016-07-22T10:57:36Z</time>
      </trkpt>
      <trkpt lat="43.0047" lon="2.99952">
        <ele>107.81</ele>
        <time>2016-07-22T10:57:56Z</time>
      </trkpt>
      <trkpt lat="43.00461" lon="2.99929">
        <ele>105.4</ele>
        <time>2016-07-22T10:58:09Z</time>
      </trkpt>
      <trkpt lat="43.00459" lon="2.99917">
        <ele>104.44</ele>
        <time>2016-07-22T10:58:16Z</time>
      </trkpt>
      <trkpt lat="43.00459" lon="2.99907">
        <ele>103.48</ele>
        <time>2016-07-22T10:58:31Z</time>
      </trkpt>
      <trkpt lat="43.00456" lon="2.999">
        <ele>102.52</ele>
        <time>2016-07-22T10:58:45Z</time>
      </trkpt>
      <trkpt lat="43.00451" lon="2.99877">
        <ele>100.6</ele>
        <time>2016-07-22T10:58:59Z</time>
      </trkpt>
      <trkpt lat="43.00443" lon="2.99847">
        <ele>99.15</ele>
        <time>2016-07-22T10:59:16Z</time>
      </trkpt>
      <trkpt lat="43.00436" lon="2.99816">
        <ele>96.75</ele>
        <time>2016-07-22T10:59:33Z</time>
      </trkpt>
      <trkpt lat="43.00433" lon="2.99803">
        <ele>95.79</ele>
        <time>2016-07-22T10:59:40Z</time>
      </trkpt>
      <trkpt lat="43.00428" lon="2.99774">
        <ele>93.87</ele>
        <time>2016-07-22T10:59:57Z</time>
      </trkpt>
      <trkpt lat="43.00426" lon="2.9976">
        <ele>92.9</ele>
        <time>2016-07-22T11:00:05Z</time>
      </trkpt>
      <trkpt lat="43.00423" lon="2.99749">
        <ele>92.42</ele>
        <time>2016-07-22T11:00:12Z</time>
      </trkpt>
      <trkpt lat="43.00416" lon="2.99727">
        <ele>90.5</ele>
        <time>2016-07-22T11:00:26Z</time>
      </trkpt>
      <trkpt lat="43.00411" lon="2.99704">
        <ele>89.54</ele>
        <time>2016-07-22T11:00:41Z</time>
      </trkpt>
      <trkpt lat="43.0041" lon="2.99673">
        <ele>88.58</ele>
        <time>2016-07-22T11:00:59Z</time>
      </trkpt>
      <trkpt lat="43.00405" lon="2.99645">
        <ele>87.14</ele>
        <time>2016-07-22T11:01:13Z</time>
      </trkpt>
      <trkpt lat="43.00398" lon="2.99631">
        <ele>86.18</ele>
        <time>2016-07-22T11:01:22Z</time>
      </trkpt>
      <trkpt lat="43.00396" lon="2.99626">
        <ele>85.69</ele>
        <time>2016-07-22T11:01:25Z</time>
      </trkpt>
      <trkpt lat="43.00394" lon="2.99618">
        <ele>86.66</ele>
        <time>2016-07-22T11:01:29Z</time>
      </trkpt>
      <trkpt lat="43.00387" lon="2.99607">
        <ele>86.66</ele>
        <time>2016-07-22T11:01:35Z</time>
      </trkpt>
      <trkpt lat="43.00367" lon="2.99587">
        <ele>87.14</ele>
        <time>2016-07-22T11:01:53Z</time>
      </trkpt>
      <trkpt lat="43.00347" lon="2.99569">
        <ele>88.1</ele>
        <time>2016-07-22T11:02:10Z</time>
      </trkpt>
      <trkpt lat="43.00327" lon="2.99555">
        <ele>89.06</ele>
        <time>2016-07-22T11:02:25Z</time>
      </trkpt>
      <trkpt lat="43.0031" lon="2.99535">
        <ele>90.5</ele>
        <time>2016-07-22T11:02:42Z</time>
      </trkpt>
      <trkpt lat="43.00297" lon="2.99513">
        <ele>91.94</ele>
        <time>2016-07-22T11:02:58Z</time>
      </trkpt>
      <trkpt lat="43.00282" lon="2.99479">
        <ele>94.35</ele>
        <time>2016-07-22T11:03:18Z</time>
      </trkpt>
      <trkpt lat="43.0027" lon="2.99447">
        <ele>93.87</ele>
        <time>2016-07-22T11:03:37Z</time>
      </trkpt>
      <trkpt lat="43.00268" lon="2.99415">
        <ele>93.87</ele>
        <time>2016-07-22T11:03:53Z</time>
      </trkpt>
      <trkpt lat="43.0026" lon="2.9938">
        <ele>93.87</ele>
        <time>2016-07-22T11:04:12Z</time>
      </trkpt>
      <trkpt lat="43.00251" lon="2.99352">
        <ele>94.35</ele>
        <time>2016-07-22T11:04:31Z</time>
      </trkpt>
      <trkpt lat="43.00252" lon="2.99352">
        <ele>94.35</ele>
        <time>2016-07-22T11:05:06Z</time>
      </trkpt>
      <trkpt lat="43.00248" lon="2.99352">
        <ele>94.35</ele>
        <time>2016-07-22T11:05:41Z</time>
      </trkpt>
      <trkpt lat="43.0025" lon="2.99353">
        <ele>89.06</ele>
        <time>2016-07-22T11:06:05Z</time>
      </trkpt>
      <trkpt lat="43.0025" lon="2.99353">
        <ele>96.75</ele>
        <time>2016-07-22T11:06:06Z</time>
      </trkpt>
      <trkpt lat="43.0025" lon="2.99353">
        <ele>96.75</ele>
        <time>2016-07-22T11:06:07Z</time>
      </trkpt>
      <trkpt lat="43.00251" lon="2.99353">
        <ele>93.87</ele>
        <time>2016-07-22T11:06:08Z</time>
      </trkpt>
      <trkpt lat="43.00251" lon="2.99353">
        <ele>93.87</ele>
        <time>2016-07-22T11:06:09Z</time>
      </trkpt>
      <trkpt lat="43.00253" lon="2.99348">
        <ele>98.19</ele>
        <time>2016-07-22T11:06:15Z</time>
      </trkpt>
      <trkpt lat="43.00253" lon="2.99348">
        <ele>93.87</ele>
        <time>2016-07-22T11:06:16Z</time>
      </trkpt>
      <trkpt lat="43.00254" lon="2.99348">
        <ele>93.87</ele>
        <time>2016-07-22T11:06:17Z</time>
      </trkpt>
      <trkpt lat="43.00254" lon="2.99346">
        <ele>94.35</ele>
        <time>2016-07-22T11:06:20Z</time>
      </trkpt>
      <trkpt lat="43.00255" lon="2.99344">
        <ele>93.87</ele>
        <time>2016-07-22T11:06:22Z</time>
      </trkpt>
      <trkpt lat="43.00256" lon="2.99337">
        <ele>95.79</ele>
        <time>2016-07-22T11:06:26Z</time>
      </trkpt>
      <trkpt lat="43.00258" lon="2.99314">
        <ele>94.35</ele>
        <time>2016-07-22T11:06:40Z</time>
      </trkpt>
      <trkpt lat="43.00258" lon="2.99282">
        <ele>95.79</ele>
        <time>2016-07-22T11:06:56Z</time>
      </trkpt>
      <trkpt lat="43.00262" lon="2.9925">
        <ele>96.27</ele>
        <time>2016-07-22T11:07:13Z</time>
      </trkpt>
      <trkpt lat="43.00267" lon="2.99228">
        <ele>96.27</ele>
        <time>2016-07-22T11:07:26Z</time>
      </trkpt>
      <trkpt lat="43.0027" lon="2.99196">
        <ele>95.31</ele>
        <time>2016-07-22T11:07:43Z</time>
      </trkpt>
      <trkpt lat="43.0027" lon="2.99179">
        <ele>94.83</ele>
        <time>2016-07-22T11:07:52Z</time>
      </trkpt>
      <trkpt lat="43.00281" lon="2.99142">
        <ele>96.75</ele>
        <time>2016-07-22T11:08:13Z</time>
      </trkpt>
      <trkpt lat="43.00287" lon="2.99106">
        <ele>97.71</ele>
        <time>2016-07-22T11:08:32Z</time>
      </trkpt>
      <trkpt lat="43.00289" lon="2.99078">
        <ele>99.15</ele>
        <time>2016-07-22T11:08:48Z</time>
      </trkpt>
      <trkpt lat="43.00287" lon="2.99071">
        <ele>98.67</ele>
        <time>2016-07-22T11:08:52Z</time>
      </trkpt>
      <trkpt lat="43.00284" lon="2.99062">
        <ele>98.67</ele>
        <time>2016-07-22T11:08:57Z</time>
      </trkpt>
      <trkpt lat="43.00283" lon="2.99058">
        <ele>98.67</ele>
        <time>2016-07-22T11:08:59Z</time>
      </trkpt>
      <trkpt lat="43.00278" lon="2.9904">
        <ele>99.15</ele>
        <time>2016-07-22T11:09:09Z</time>
      </trkpt>
      <trkpt lat="43.00268" lon="2.99004">
        <ele>98.67</ele>
        <time>2016-07-22T11:09:29Z</time>
      </trkpt>
      <trkpt lat="43.00263" lon="2.98972">
        <ele>99.63</ele>
        <time>2016-07-22T11:09:48Z</time>
      </trkpt>
      <trkpt lat="43.00279" lon="2.98947">
        <ele>98.67</ele>
        <time>2016-07-22T11:10:08Z</time>
      </trkpt>
      <trkpt lat="43.00299" lon="2.98914">
        <ele>100.6</ele>
        <time>2016-07-22T11:10:32Z</time>
      </trkpt>
      <trkpt lat="43.00301" lon="2.9888">
        <ele>100.6</ele>
        <time>2016-07-22T11:10:49Z</time>
      </trkpt>
      <trkpt lat="43.00291" lon="2.98846">
        <ele>100.11</ele>
        <time>2016-07-22T11:11:06Z</time>
      </trkpt>
      <trkpt lat="43.00279" lon="2.98808">
        <ele>99.63</ele>
        <time>2016-07-22T11:11:27Z</time>
      </trkpt>
      <trkpt lat="43.00269" lon="2.98775">
        <ele>99.15</ele>
        <time>2016-07-22T11:11:45Z</time>
      </trkpt>
      <trkpt lat="43.0026" lon="2.98742">
        <ele>99.15</ele>
        <time>2016-07-22T11:12:04Z</time>
      </trkpt>
      <trkpt lat="43.00252" lon="2.98713">
        <ele>99.63</ele>
        <time>2016-07-22T11:12:20Z</time>
      </trkpt>
      <trkpt lat="43.00251" lon="2.987">
        <ele>101.08</ele>
        <time>2016-07-22T11:12:26Z</time>
      </trkpt>
      <trkpt lat="43.00249" lon="2.98695">
        <ele>100.11</ele>
        <time>2016-07-22T11:12:29Z</time>
      </trkpt>
      <trkpt lat="43.00235" lon="2.98667">
        <ele>99.15</ele>
        <time>2016-07-22T11:12:48Z</time>
      </trkpt>
      <trkpt lat="43.00213" lon="2.98634">
        <ele>97.71</ele>
        <time>2016-07-22T11:13:11Z</time>
      </trkpt>
      <trkpt lat="43.00194" lon="2.98608">
        <ele>96.75</ele>
        <time>2016-07-22T11:13:30Z</time>
      </trkpt>
      <trkpt lat="43.00175" lon="2.98581">
        <ele>96.27</ele>
        <time>2016-07-22T11:13:51Z</time>
      </trkpt>
      <trkpt lat="43.00159" lon="2.98558">
        <ele>96.27</ele>
        <time>2016-07-22T11:14:07Z</time>
      </trkpt>
      <trkpt lat="43.00158" lon="2.98555">
        <ele>96.27</ele>
        <time>2016-07-22T11:14:08Z</time>
      </trkpt>
      <trkpt lat="43.00155" lon="2.98549">
        <ele>96.27</ele>
        <time>2016-07-22T11:14:12Z</time>
      </trkpt>
      <trkpt lat="43.00138" lon="2.9853">
        <ele>95.31</ele>
        <time>2016-07-22T11:14:27Z</time>
      </trkpt>
      <trkpt lat="43.00133" lon="2.98523">
        <ele>94.83</ele>
        <time>2016-07-22T11:14:32Z</time>
      </trkpt>
      <trkpt lat="43.00116" lon="2.985">
        <ele>94.83</ele>
        <time>2016-07-22T11:14:50Z</time>
      </trkpt>
      <trkpt lat="43.00105" lon="2.98486">
        <ele>93.87</ele>
        <time>2016-07-22T11:15:02Z</time>
      </trkpt>
      <trkpt lat="43.00102" lon="2.98478">
        <ele>93.39</ele>
        <time>2016-07-22T11:15:06Z</time>
      </trkpt>
      <trkpt lat="43.00095" lon="2.98469">
        <ele>93.39</ele>
        <time>2016-07-22T11:15:12Z</time>
      </trkpt>
      <trkpt lat="43.0008" lon="2.9845">
        <ele>95.31</ele>
        <time>2016-07-22T11:15:27Z</time>
      </trkpt>
      <trkpt lat="43.00075" lon="2.98444">
        <ele>94.83</ele>
        <time>2016-07-22T11:15:32Z</time>
      </trkpt>
      <trkpt lat="43.00064" lon="2.98426">
        <ele>96.27</ele>
        <time>2016-07-22T11:15:45Z</time>
      </trkpt>
      <trkpt lat="43.00054" lon="2.98411">
        <ele>97.23</ele>
        <time>2016-07-22T11:15:56Z</time>
      </trkpt>
      <trkpt lat="43.00039" lon="2.98386">
        <ele>98.19</ele>
        <time>2016-07-22T11:16:14Z</time>
      </trkpt>
      <trkpt lat="43.00026" lon="2.98367">
        <ele>99.15</ele>
        <time>2016-07-22T11:16:28Z</time>
      </trkpt>
      <trkpt lat="43.00018" lon="2.98349">
        <ele>99.63</ele>
        <time>2016-07-22T11:16:44Z</time>
      </trkpt>
      <trkpt lat="43.00017" lon="2.98321">
        <ele>101.08</ele>
        <time>2016-07-22T11:17:00Z</time>
      </trkpt>
      <trkpt lat="43.00011" lon="2.98297">
        <ele>101.08</ele>
        <time>2016-07-22T11:17:14Z</time>
      </trkpt>
      <trkpt lat="43.00002" lon="2.9826">
        <ele>103</ele>
        <time>2016-07-22T11:17:35Z</time>
      </trkpt>
      <trkpt lat="42.99995" lon="2.98232">
        <ele>103.96</ele>
        <time>2016-07-22T11:17:52Z</time>
      </trkpt>
      <trkpt lat="42.99985" lon="2.98198">
        <ele>104.92</ele>
        <time>2016-07-22T11:18:12Z</time>
      </trkpt>
      <trkpt lat="42.99973" lon="2.98164">
        <ele>105.88</ele>
        <time>2016-07-22T11:18:32Z</time>
      </trkpt>
      <trkpt lat="42.99963" lon="2.98128">
        <ele>107.32</ele>
        <time>2016-07-22T11:18:53Z</time>
      </trkpt>
      <trkpt lat="42.99951" lon="2.98088">
        <ele>108.29</ele>
        <time>2016-07-22T11:19:16Z</time>
      </trkpt>
      <trkpt lat="42.99938" lon="2.98056">
        <ele>109.25</ele>
        <time>2016-07-22T11:19:36Z</time>
      </trkpt>
      <trkpt lat="42.99922" lon="2.98021">
        <ele>108.77</ele>
        <time>2016-07-22T11:19:57Z</time>
      </trkpt>
      <trkpt lat="42.99907" lon="2.97987">
        <ele>109.73</ele>
        <time>2016-07-22T11:20:18Z</time>
      </trkpt>
      <trkpt lat="42.99898" lon="2.97958">
        <ele>110.21</ele>
        <time>2016-07-22T11:20:35Z</time>
      </trkpt>
      <trkpt lat="42.99888" lon="2.9792">
        <ele>110.69</ele>
        <time>2016-07-22T11:20:56Z</time>
      </trkpt>
      <trkpt lat="42.9988" lon="2.9789">
        <ele>110.21</ele>
        <time>2016-07-22T11:21:13Z</time>
      </trkpt>
      <trkpt lat="42.9987" lon="2.97854">
        <ele>110.69</ele>
        <time>2016-07-22T11:21:33Z</time>
      </trkpt>
      <trkpt lat="42.99868" lon="2.97844">
        <ele>110.69</ele>
        <time>2016-07-22T11:21:49Z</time>
      </trkpt>
      <trkpt lat="42.9987" lon="2.97838">
        <ele>110.21</ele>
        <time>2016-07-22T11:21:53Z</time>
      </trkpt>
      <trkpt lat="42.99891" lon="2.97825">
        <ele>110.21</ele>
        <time>2016-07-22T11:22:13Z</time>
      </trkpt>
      <trkpt lat="42.99893" lon="2.97819">
        <ele>111.17</ele>
        <time>2016-07-22T11:22:17Z</time>
      </trkpt>
      <trkpt lat="42.999" lon="2.97809">
        <ele>110.21</ele>
        <time>2016-07-22T11:22:25Z</time>
      </trkpt>
      <trkpt lat="42.99909" lon="2.97793">
        <ele>111.17</ele>
        <time>2016-07-22T11:22:35Z</time>
      </trkpt>
      <trkpt lat="42.99926" lon="2.97761">
        <ele>113.09</ele>
        <time>2016-07-22T11:22:55Z</time>
      </trkpt>
      <trkpt lat="42.99939" lon="2.9775">
        <ele>113.09</ele>
        <time>2016-07-22T11:23:11Z</time>
      </trkpt>
      <trkpt lat="42.9994" lon="2.9775">
        <ele>112.61</ele>
        <time>2016-07-22T11:23:28Z</time>
      </trkpt>
      <trkpt lat="42.99943" lon="2.97753">
        <ele>113.09</ele>
        <time>2016-07-22T11:23:31Z</time>
      </trkpt>
      <trkpt lat="42.99962" lon="2.9777">
        <ele>112.61</ele>
        <time>2016-07-22T11:23:49Z</time>
      </trkpt>
      <trkpt lat="42.99987" lon="2.97784">
        <ele>113.57</ele>
        <time>2016-07-22T11:24:10Z</time>
      </trkpt>
      <trkpt lat="42.99997" lon="2.97786">
        <ele>113.57</ele>
        <time>2016-07-22T11:24:20Z</time>
      </trkpt>
      <trkpt lat="43.0003" lon="2.97776">
        <ele>115.5</ele>
        <time>2016-07-22T11:24:42Z</time>
      </trkpt>
      <trkpt lat="43.00061" lon="2.97766">
        <ele>116.94</ele>
        <time>2016-07-22T11:25:04Z</time>
      </trkpt>
      <trkpt lat="43.00063" lon="2.97766">
        <ele>116.94</ele>
        <time>2016-07-22T11:25:05Z</time>
      </trkpt>
      <trkpt lat="43.00079" lon="2.97765">
        <ele>116.94</ele>
        <time>2016-07-22T11:25:22Z</time>
      </trkpt>
      <trkpt lat="43.00093" lon="2.9776">
        <ele>119.82</ele>
        <time>2016-07-22T11:25:34Z</time>
      </trkpt>
      <trkpt lat="43.00099" lon="2.97763">
        <ele>119.82</ele>
        <time>2016-07-22T11:25:40Z</time>
      </trkpt>
      <trkpt lat="43.00103" lon="2.97772">
        <ele>117.42</ele>
        <time>2016-07-22T11:25:45Z</time>
      </trkpt>
      <trkpt lat="43.00103" lon="2.97802">
        <ele>118.86</ele>
        <time>2016-07-22T11:26:03Z</time>
      </trkpt>
      <trkpt lat="43.00103" lon="2.97803">
        <ele>118.86</ele>
        <time>2016-07-22T11:26:04Z</time>
      </trkpt>
      <trkpt lat="43.00105" lon="2.97809">
        <ele>119.34</ele>
        <time>2016-07-22T11:26:09Z</time>
      </trkpt>
      <trkpt lat="43.00109" lon="2.97812">
        <ele>117.42</ele>
        <time>2016-07-22T11:26:13Z</time>
      </trkpt>
      <trkpt lat="43.00133" lon="2.9781">
        <ele>116.46</ele>
        <time>2016-07-22T11:26:33Z</time>
      </trkpt>
      <trkpt lat="43.00141" lon="2.9781">
        <ele>116.94</ele>
        <time>2016-07-22T11:26:42Z</time>
      </trkpt>
      <trkpt lat="43.00141" lon="2.97803">
        <ele>115.98</ele>
        <time>2016-07-22T11:27:00Z</time>
      </trkpt>
      <trkpt lat="43.00142" lon="2.97799">
        <ele>114.53</ele>
        <time>2016-07-22T11:27:23Z</time>
      </trkpt>
      <trkpt lat="43.00144" lon="2.97799">
        <ele>115.01</ele>
        <time>2016-07-22T11:27:46Z</time>
      </trkpt>
      <trkpt lat="43.00144" lon="2.97797">
        <ele>114.53</ele>
        <time>2016-07-22T11:28:06Z</time>
      </trkpt>
      <trkpt lat="43.00146" lon="2.97786">
        <ele>111.17</ele>
        <time>2016-07-22T11:28:23Z</time>
      </trkpt>
      <trkpt lat="43.00149" lon="2.97776">
        <ele>108.29</ele>
        <time>2016-07-22T11:28:37Z</time>
      </trkpt>
      <trkpt lat="43.00151" lon="2.9776">
        <ele>105.4</ele>
        <time>2016-07-22T11:28:50Z</time>
      </trkpt>
      <trkpt lat="43.00152" lon="2.97753">
        <ele>103</ele>
        <time>2016-07-22T11:29:02Z</time>
      </trkpt>
      <trkpt lat="43.00156" lon="2.97752">
        <ele>101.56</ele>
        <time>2016-07-22T11:29:14Z</time>
      </trkpt>
      <trkpt lat="43.00157" lon="2.97743">
        <ele>98.19</ele>
        <time>2016-07-22T11:29:26Z</time>
      </trkpt>
      <trkpt lat="43.00164" lon="2.97734">
        <ele>96.27</ele>
        <time>2016-07-22T11:29:41Z</time>
      </trkpt>
      <trkpt lat="43.00167" lon="2.97724">
        <ele>93.39</ele>
        <time>2016-07-22T11:29:49Z</time>
      </trkpt>
      <trkpt lat="43.00168" lon="2.97719">
        <ele>91.94</ele>
        <time>2016-07-22T11:29:52Z</time>
      </trkpt>
      <trkpt lat="43.00171" lon="2.97702">
        <ele>88.1</ele>
        <time>2016-07-22T11:30:06Z</time>
      </trkpt>
      <trkpt lat="43.00173" lon="2.97683">
        <ele>85.69</ele>
        <time>2016-07-22T11:30:19Z</time>
      </trkpt>
      <trkpt lat="43.00173" lon="2.97676">
        <ele>84.73</ele>
        <time>2016-07-22T11:30:24Z</time>
      </trkpt>
      <trkpt lat="43.00175" lon="2.97661">
        <ele>82.81</ele>
        <time>2016-07-22T11:30:34Z</time>
      </trkpt>
      <trkpt lat="43.00177" lon="2.97646">
        <ele>79.93</ele>
        <time>2016-07-22T11:30:47Z</time>
      </trkpt>
      <trkpt lat="43.00178" lon="2.97628">
        <ele>77.04</ele>
        <time>2016-07-22T11:30:59Z</time>
      </trkpt>
      <trkpt lat="43.0018" lon="2.97621">
        <ele>76.08</ele>
        <time>2016-07-22T11:31:04Z</time>
      </trkpt>
      <trkpt lat="43.00181" lon="2.97615">
        <ele>75.12</ele>
        <time>2016-07-22T11:31:08Z</time>
      </trkpt>
      <trkpt lat="43.00184" lon="2.97598">
        <ele>73.2</ele>
        <time>2016-07-22T11:31:19Z</time>
      </trkpt>
      <trkpt lat="43.00185" lon="2.97587">
        <ele>72.24</ele>
        <time>2016-07-22T11:31:26Z</time>
      </trkpt>
      <trkpt lat="43.00181" lon="2.97585">
        <ele>72.24</ele>
        <time>2016-07-22T11:31:41Z</time>
      </trkpt>
      <trkpt lat="43.0018" lon="2.97583">
        <ele>67.91</ele>
        <time>2016-07-22T11:31:49Z</time>
      </trkpt>
      <trkpt lat="43.0018" lon="2.97583">
        <ele>72.72</ele>
        <time>2016-07-22T11:31:50Z</time>
      </trkpt>
      <trkpt lat="43.0018" lon="2.97583">
        <ele>68.39</ele>
        <time>2016-07-22T11:31:51Z</time>
      </trkpt>
      <trkpt lat="43.0018" lon="2.97583">
        <ele>71.76</ele>
        <time>2016-07-22T11:31:52Z</time>
      </trkpt>
      <trkpt lat="43.00179" lon="2.97584">
        <ele>73.2</ele>
        <time>2016-07-22T11:31:55Z</time>
      </trkpt>
      <trkpt lat="43.00179" lon="2.97584">
        <ele>69.35</ele>
        <time>2016-07-22T11:31:59Z</time>
      </trkpt>
      <trkpt lat="43.00179" lon="2.97584">
        <ele>76.08</ele>
        <time>2016-07-22T11:32:00Z</time>
      </trkpt>
      <trkpt lat="43.00178" lon="2.97584">
        <ele>69.83</ele>
        <time>2016-07-22T11:32:01Z</time>
      </trkpt>
      <trkpt lat="43.00178" lon="2.97584">
        <ele>73.2</ele>
        <time>2016-07-22T11:32:02Z</time>
      </trkpt>
      <trkpt lat="43.00176" lon="2.97581">
        <ele>71.76</ele>
        <time>2016-07-22T11:32:13Z</time>
      </trkpt>
      <trkpt lat="43.00177" lon="2.97578">
        <ele>71.76</ele>
        <time>2016-07-22T11:32:15Z</time>
      </trkpt>
      <trkpt lat="43.0018" lon="2.97572">
        <ele>71.27</ele>
        <time>2016-07-22T11:32:19Z</time>
      </trkpt>
      <trkpt lat="43.00181" lon="2.97563">
        <ele>70.79</ele>
        <time>2016-07-22T11:32:24Z</time>
      </trkpt>
      <trkpt lat="43.00181" lon="2.97558">
        <ele>73.68</ele>
        <time>2016-07-22T11:32:35Z</time>
      </trkpt>
      <trkpt lat="43.00181" lon="2.97558">
        <ele>70.31</ele>
        <time>2016-07-22T11:32:37Z</time>
      </trkpt>
      <trkpt lat="43.00181" lon="2.97548">
        <ele>69.35</ele>
        <time>2016-07-22T11:32:47Z</time>
      </trkpt>
      <trkpt lat="43.00183" lon="2.97523">
        <ele>67.43</ele>
        <time>2016-07-22T11:33:01Z</time>
      </trkpt>
      <trkpt lat="43.00184" lon="2.975">
        <ele>64.55</ele>
        <time>2016-07-22T11:33:16Z</time>
      </trkpt>
      <trkpt lat="43.00186" lon="2.97483">
        <ele>62.62</ele>
        <time>2016-07-22T11:33:26Z</time>
      </trkpt>
      <trkpt lat="43.00189" lon="2.97473">
        <ele>61.66</ele>
        <time>2016-07-22T11:33:32Z</time>
      </trkpt>
      <trkpt lat="43.00191" lon="2.97468">
        <ele>60.7</ele>
        <time>2016-07-22T11:33:35Z</time>
      </trkpt>
      <trkpt lat="43.00197" lon="2.97459">
        <ele>58.78</ele>
        <time>2016-07-22T11:33:43Z</time>
      </trkpt>
      <trkpt lat="43.00197" lon="2.97457">
        <ele>60.22</ele>
        <time>2016-07-22T11:33:46Z</time>
      </trkpt>
      <trkpt lat="43.00192" lon="2.97453">
        <ele>59.74</ele>
        <time>2016-07-22T11:33:55Z</time>
      </trkpt>
      <trkpt lat="43.00194" lon="2.97438">
        <ele>58.78</ele>
        <time>2016-07-22T11:34:10Z</time>
      </trkpt>
      <trkpt lat="43.00195" lon="2.9744">
        <ele>58.78</ele>
        <time>2016-07-22T11:34:15Z</time>
      </trkpt>
      <trkpt lat="43.00195" lon="2.97438">
        <ele>58.78</ele>
        <time>2016-07-22T11:34:17Z</time>
      </trkpt>
      <trkpt lat="43.00195" lon="2.97406">
        <ele>57.82</ele>
        <time>2016-07-22T11:34:34Z</time>
      </trkpt>
      <trkpt lat="43.00196" lon="2.9738">
        <ele>57.82</ele>
        <time>2016-07-22T11:34:48Z</time>
      </trkpt>
      <trkpt lat="43.0018" lon="2.97364">
        <ele>57.34</ele>
        <time>2016-07-22T11:35:04Z</time>
      </trkpt>
      <trkpt lat="43.0016" lon="2.97352">
        <ele>57.82</ele>
        <time>2016-07-22T11:35:19Z</time>
      </trkpt>
      <trkpt lat="43.00135" lon="2.97333">
        <ele>57.82</ele>
        <time>2016-07-22T11:35:36Z</time>
      </trkpt>
      <trkpt lat="43.00129" lon="2.97318">
        <ele>58.3</ele>
        <time>2016-07-22T11:35:44Z</time>
      </trkpt>
      <trkpt lat="43.00134" lon="2.97312">
        <ele>56.86</ele>
        <time>2016-07-22T11:35:48Z</time>
      </trkpt>
      <trkpt lat="43.00136" lon="2.9731">
        <ele>57.34</ele>
        <time>2016-07-22T11:35:53Z</time>
      </trkpt>
      <trkpt lat="43.00146" lon="2.97287">
        <ele>56.86</ele>
        <time>2016-07-22T11:36:07Z</time>
      </trkpt>
      <trkpt lat="43.00164" lon="2.97255">
        <ele>55.41</ele>
        <time>2016-07-22T11:36:27Z</time>
      </trkpt>
      <trkpt lat="43.00182" lon="2.97224">
        <ele>53.97</ele>
        <time>2016-07-22T11:36:46Z</time>
      </trkpt>
      <trkpt lat="43.00191" lon="2.97208">
        <ele>53.97</ele>
        <time>2016-07-22T11:37:00Z</time>
      </trkpt>
      <trkpt lat="43.00188" lon="2.97205">
        <ele>53.49</ele>
        <time>2016-07-22T11:37:19Z</time>
      </trkpt>
      <trkpt lat="43.00187" lon="2.972">
        <ele>53.97</ele>
        <time>2016-07-22T11:38:00Z</time>
      </trkpt>
      <trkpt lat="43.00185" lon="2.97202">
        <ele>54.45</ele>
        <time>2016-07-22T11:38:09Z</time>
      </trkpt>
      <trkpt lat="43.00182" lon="2.97204">
        <ele>54.93</ele>
        <time>2016-07-22T11:38:11Z</time>
      </trkpt>
      <trkpt lat="43.00155" lon="2.97191">
        <ele>54.45</ele>
        <time>2016-07-22T11:38:29Z</time>
      </trkpt>
      <trkpt lat="43.00141" lon="2.97176">
        <ele>54.45</ele>
        <time>2016-07-22T11:38:42Z</time>
      </trkpt>
      <trkpt lat="43.0014" lon="2.97147">
        <ele>53.97</ele>
        <time>2016-07-22T11:38:58Z</time>
      </trkpt>
      <trkpt lat="43.00151" lon="2.97116">
        <ele>53.97</ele>
        <time>2016-07-22T11:39:15Z</time>
      </trkpt>
      <trkpt lat="43.00166" lon="2.97087">
        <ele>52.05</ele>
        <time>2016-07-22T11:39:35Z</time>
      </trkpt>
      <trkpt lat="43.00178" lon="2.97052">
        <ele>49.65</ele>
        <time>2016-07-22T11:39:56Z</time>
      </trkpt>
      <trkpt lat="43.00178" lon="2.97029">
        <ele>46.28</ele>
        <time>2016-07-22T11:40:10Z</time>
      </trkpt>
      <trkpt lat="43.00177" lon="2.97016">
        <ele>45.32</ele>
        <time>2016-07-22T11:40:25Z</time>
      </trkpt>
      <trkpt lat="43.00172" lon="2.97006">
        <ele>45.32</ele>
        <time>2016-07-22T11:40:39Z</time>
      </trkpt>
      <trkpt lat="43.00162" lon="2.96993">
        <ele>44.36</ele>
        <time>2016-07-22T11:40:50Z</time>
      </trkpt>
      <trkpt lat="43.00162" lon="2.96973">
        <ele>42.92</ele>
        <time>2016-07-22T11:41:01Z</time>
      </trkpt>
      <trkpt lat="43.00166" lon="2.96957">
        <ele>42.92</ele>
        <time>2016-07-22T11:41:13Z</time>
      </trkpt>
      <trkpt lat="43.00164" lon="2.96942">
        <ele>43.4</ele>
        <time>2016-07-22T11:41:21Z</time>
      </trkpt>
      <trkpt lat="43.00161" lon="2.96937">
        <ele>43.4</ele>
        <time>2016-07-22T11:41:23Z</time>
      </trkpt>
      <trkpt lat="43.00143" lon="2.96906">
        <ele>45.32</ele>
        <time>2016-07-22T11:41:43Z</time>
      </trkpt>
      <trkpt lat="43.00129" lon="2.96879">
        <ele>45.8</ele>
        <time>2016-07-22T11:42:00Z</time>
      </trkpt>
      <trkpt lat="43.0012" lon="2.96853">
        <ele>45.8</ele>
        <time>2016-07-22T11:42:16Z</time>
      </trkpt>
      <trkpt lat="43.00114" lon="2.96842">
        <ele>46.28</ele>
        <time>2016-07-22T11:42:24Z</time>
      </trkpt>
      <trkpt lat="43.00114" lon="2.96809">
        <ele>45.32</ele>
        <time>2016-07-22T11:42:40Z</time>
      </trkpt>
      <trkpt lat="43.00114" lon="2.96774">
        <ele>45.32</ele>
        <time>2016-07-22T11:42:58Z</time>
      </trkpt>
      <trkpt lat="43.00111" lon="2.96738">
        <ele>46.28</ele>
        <time>2016-07-22T11:43:15Z</time>
      </trkpt>
      <trkpt lat="43.00106" lon="2.96706">
        <ele>46.76</ele>
        <time>2016-07-22T11:43:31Z</time>
      </trkpt>
      <trkpt lat="43.00099" lon="2.96669">
        <ele>47.24</ele>
        <time>2016-07-22T11:43:49Z</time>
      </trkpt>
      <trkpt lat="43.00099" lon="2.96636">
        <ele>47.72</ele>
        <time>2016-07-22T11:44:05Z</time>
      </trkpt>
      <trkpt lat="43.001" lon="2.96598">
        <ele>47.72</ele>
        <time>2016-07-22T11:44:25Z</time>
      </trkpt>
      <trkpt lat="43.00103" lon="2.96563">
        <ele>47.24</ele>
        <time>2016-07-22T11:44:41Z</time>
      </trkpt>
      <trkpt lat="43.00106" lon="2.96532">
        <ele>48.2</ele>
        <time>2016-07-22T11:44:59Z</time>
      </trkpt>
      <trkpt lat="43.00108" lon="2.96512">
        <ele>47.72</ele>
        <time>2016-07-22T11:45:12Z</time>
      </trkpt>
      <trkpt lat="43.00112" lon="2.96474">
        <ele>47.72</ele>
        <time>2016-07-22T11:45:30Z</time>
      </trkpt>
      <trkpt lat="43.00108" lon="2.96442">
        <ele>47.72</ele>
        <time>2016-07-22T11:45:45Z</time>
      </trkpt>
      <trkpt lat="43.00102" lon="2.96405">
        <ele>47.72</ele>
        <time>2016-07-22T11:46:03Z</time>
      </trkpt>
      <trkpt lat="43.00093" lon="2.96378">
        <ele>47.72</ele>
        <time>2016-07-22T11:46:18Z</time>
      </trkpt>
      <trkpt lat="43.00085" lon="2.96367">
        <ele>48.2</ele>
        <time>2016-07-22T11:46:28Z</time>
      </trkpt>
      <trkpt lat="43.00073" lon="2.96349">
        <ele>48.68</ele>
        <time>2016-07-22T11:46:42Z</time>
      </trkpt>
      <trkpt lat="43.00063" lon="2.96326">
        <ele>49.16</ele>
        <time>2016-07-22T11:46:59Z</time>
      </trkpt>
      <trkpt lat="43.00055" lon="2.96315">
        <ele>49.16</ele>
        <time>2016-07-22T11:47:08Z</time>
      </trkpt>
      <trkpt lat="43.00042" lon="2.96293">
        <ele>49.65</ele>
        <time>2016-07-22T11:47:23Z</time>
      </trkpt>
      <trkpt lat="43.00027" lon="2.96268">
        <ele>49.65</ele>
        <time>2016-07-22T11:47:38Z</time>
      </trkpt>
      <trkpt lat="43.00021" lon="2.96252">
        <ele>50.13</ele>
        <time>2016-07-22T11:47:47Z</time>
      </trkpt>
      <trkpt lat="43.00013" lon="2.96223">
        <ele>50.13</ele>
        <time>2016-07-22T11:48:04Z</time>
      </trkpt>
      <trkpt lat="43.00004" lon="2.96191">
        <ele>50.61</ele>
        <time>2016-07-22T11:48:23Z</time>
      </trkpt>
      <trkpt lat="42.99985" lon="2.96165">
        <ele>50.61</ele>
        <time>2016-07-22T11:48:43Z</time>
      </trkpt>
      <trkpt lat="42.99962" lon="2.96136">
        <ele>50.61</ele>
        <time>2016-07-22T11:49:05Z</time>
      </trkpt>
      <trkpt lat="42.99945" lon="2.96122">
        <ele>52.05</ele>
        <time>2016-07-22T11:49:19Z</time>
      </trkpt>
      <trkpt lat="42.99921" lon="2.96085">
        <ele>52.05</ele>
        <time>2016-07-22T11:49:39Z</time>
      </trkpt>
      <trkpt lat="42.99906" lon="2.96041">
        <ele>52.05</ele>
        <time>2016-07-22T11:50:01Z</time>
      </trkpt>
      <trkpt lat="42.99897" lon="2.95993">
        <ele>52.53</ele>
        <time>2016-07-22T11:50:25Z</time>
      </trkpt>
      <trkpt lat="42.99893" lon="2.95957">
        <ele>53.49</ele>
        <time>2016-07-22T11:50:46Z</time>
      </trkpt>
      <trkpt lat="42.9989" lon="2.95915">
        <ele>53.97</ele>
        <time>2016-07-22T11:51:10Z</time>
      </trkpt>
      <trkpt lat="42.99886" lon="2.9588">
        <ele>53.97</ele>
        <time>2016-07-22T11:51:29Z</time>
      </trkpt>
      <trkpt lat="42.99884" lon="2.95863">
        <ele>53.97</ele>
        <time>2016-07-22T11:51:38Z</time>
      </trkpt>
      <trkpt lat="42.99881" lon="2.95857">
        <ele>54.45</ele>
        <time>2016-07-22T11:51:42Z</time>
      </trkpt>
      <trkpt lat="42.99866" lon="2.95826">
        <ele>53.97</ele>
        <time>2016-07-22T11:52:01Z</time>
      </trkpt>
      <trkpt lat="42.99865" lon="2.95824">
        <ele>53.49</ele>
        <time>2016-07-22T11:52:02Z</time>
      </trkpt>
      <trkpt lat="42.99849" lon="2.958">
        <ele>53.97</ele>
        <time>2016-07-22T11:52:20Z</time>
      </trkpt>
      <trkpt lat="42.99828" lon="2.95774">
        <ele>54.45</ele>
        <time>2016-07-22T11:52:40Z</time>
      </trkpt>
      <trkpt lat="42.99803" lon="2.95745">
        <ele>53.97</ele>
        <time>2016-07-22T11:53:01Z</time>
      </trkpt>
      <trkpt lat="42.99776" lon="2.95716">
        <ele>54.93</ele>
        <time>2016-07-22T11:53:25Z</time>
      </trkpt>
      <trkpt lat="42.99756" lon="2.9569">
        <ele>54.93</ele>
        <time>2016-07-22T11:53:45Z</time>
      </trkpt>
      <trkpt lat="42.9974" lon="2.95659">
        <ele>54.93</ele>
        <time>2016-07-22T11:54:02Z</time>
      </trkpt>
      <trkpt lat="42.99729" lon="2.95621">
        <ele>55.41</ele>
        <time>2016-07-22T11:54:22Z</time>
      </trkpt>
      <trkpt lat="42.99709" lon="2.95622">
        <ele>54.93</ele>
        <time>2016-07-22T11:54:36Z</time>
      </trkpt>
      <trkpt lat="42.99687" lon="2.9562">
        <ele>54.45</ele>
        <time>2016-07-22T11:54:52Z</time>
      </trkpt>
      <trkpt lat="42.9966" lon="2.95619">
        <ele>53.97</ele>
        <time>2016-07-22T11:55:11Z</time>
      </trkpt>
      <trkpt lat="42.99656" lon="2.95618">
        <ele>52.53</ele>
        <time>2016-07-22T11:55:14Z</time>
      </trkpt>
      <trkpt lat="42.99652" lon="2.95618">
        <ele>56.37</ele>
        <time>2016-07-22T11:55:17Z</time>
      </trkpt>
      <trkpt lat="42.9965" lon="2.95618">
        <ele>51.09</ele>
        <time>2016-07-22T11:55:18Z</time>
      </trkpt>
      <trkpt lat="42.99649" lon="2.95618">
        <ele>55.89</ele>
        <time>2016-07-22T11:55:19Z</time>
      </trkpt>
      <trkpt lat="42.99644" lon="2.95619">
        <ele>49.16</ele>
        <time>2016-07-22T11:55:23Z</time>
      </trkpt>
      <trkpt lat="42.99642" lon="2.95619">
        <ele>57.34</ele>
        <time>2016-07-22T11:55:24Z</time>
      </trkpt>
      <trkpt lat="42.99641" lon="2.95619">
        <ele>53.49</ele>
        <time>2016-07-22T11:55:25Z</time>
      </trkpt>
      <trkpt lat="42.99635" lon="2.95619">
        <ele>50.13</ele>
        <time>2016-07-22T11:55:29Z</time>
      </trkpt>
      <trkpt lat="42.99634" lon="2.95619">
        <ele>56.37</ele>
        <time>2016-07-22T11:55:30Z</time>
      </trkpt>
      <trkpt lat="42.99632" lon="2.95618">
        <ele>51.57</ele>
        <time>2016-07-22T11:55:31Z</time>
      </trkpt>
      <trkpt lat="42.99631" lon="2.95618">
        <ele>55.41</ele>
        <time>2016-07-22T11:55:32Z</time>
      </trkpt>
      <trkpt lat="42.99629" lon="2.95619">
        <ele>49.65</ele>
        <time>2016-07-22T11:55:33Z</time>
      </trkpt>
      <trkpt lat="42.99628" lon="2.95619">
        <ele>56.86</ele>
        <time>2016-07-22T11:55:34Z</time>
      </trkpt>
      <trkpt lat="42.99627" lon="2.95619">
        <ele>51.57</ele>
        <time>2016-07-22T11:55:35Z</time>
      </trkpt>
      <trkpt lat="42.99625" lon="2.95618">
        <ele>56.86</ele>
        <time>2016-07-22T11:55:36Z</time>
      </trkpt>
      <trkpt lat="42.99623" lon="2.95618">
        <ele>53.97</ele>
        <time>2016-07-22T11:55:38Z</time>
      </trkpt>
      <trkpt lat="42.996" lon="2.95618">
        <ele>53.49</ele>
        <time>2016-07-22T11:55:57Z</time>
      </trkpt>
      <trkpt lat="42.99574" lon="2.95621">
        <ele>53.97</ele>
        <time>2016-07-22T11:56:14Z</time>
      </trkpt>
      <trkpt lat="42.99541" lon="2.95623">
        <ele>53.97</ele>
        <time>2016-07-22T11:56:36Z</time>
      </trkpt>
      <trkpt lat="42.99513" lon="2.9562">
        <ele>53.97</ele>
        <time>2016-07-22T11:56:56Z</time>
      </trkpt>
      <trkpt lat="42.99494" lon="2.95615">
        <ele>54.45</ele>
        <time>2016-07-22T11:57:10Z</time>
      </trkpt>
      <trkpt lat="42.99466" lon="2.95609">
        <ele>54.93</ele>
        <time>2016-07-22T11:57:30Z</time>
      </trkpt>
      <trkpt lat="42.99457" lon="2.95605">
        <ele>55.41</ele>
        <time>2016-07-22T11:57:44Z</time>
      </trkpt>
      <trkpt lat="42.99453" lon="2.95606">
        <ele>54.93</ele>
        <time>2016-07-22T11:57:48Z</time>
      </trkpt>
      <trkpt lat="42.9943" lon="2.956">
        <ele>54.45</ele>
        <time>2016-07-22T11:58:05Z</time>
      </trkpt>
      <trkpt lat="42.99405" lon="2.95594">
        <ele>54.93</ele>
        <time>2016-07-22T11:58:23Z</time>
      </trkpt>
      <trkpt lat="42.99381" lon="2.95591">
        <ele>54.93</ele>
        <time>2016-07-22T11:58:39Z</time>
      </trkpt>
      <trkpt lat="42.9937" lon="2.9559">
        <ele>55.89</ele>
        <time>2016-07-22T11:58:47Z</time>
      </trkpt>
      <trkpt lat="42.99343" lon="2.95586">
        <ele>54.93</ele>
        <time>2016-07-22T11:59:05Z</time>
      </trkpt>
      <trkpt lat="42.99318" lon="2.95584">
        <ele>54.93</ele>
        <time>2016-07-22T11:59:24Z</time>
      </trkpt>
      <trkpt lat="42.99302" lon="2.95585">
        <ele>54.93</ele>
        <time>2016-07-22T11:59:37Z</time>
      </trkpt>
      <trkpt lat="42.99279" lon="2.9559">
        <ele>55.89</ele>
        <time>2016-07-22T11:59:54Z</time>
      </trkpt>
      <trkpt lat="42.99251" lon="2.956">
        <ele>55.89</ele>
        <time>2016-07-22T12:00:13Z</time>
      </trkpt>
      <trkpt lat="42.99222" lon="2.95607">
        <ele>57.34</ele>
        <time>2016-07-22T12:00:37Z</time>
      </trkpt>
      <trkpt lat="42.9922" lon="2.95609">
        <ele>57.82</ele>
        <time>2016-07-22T12:00:41Z</time>
      </trkpt>
      <trkpt lat="42.99204" lon="2.95606">
        <ele>58.3</ele>
        <time>2016-07-22T12:00:58Z</time>
      </trkpt>
      <trkpt lat="42.99201" lon="2.95605">
        <ele>58.78</ele>
        <time>2016-07-22T12:01:01Z</time>
      </trkpt>
      <trkpt lat="42.99183" lon="2.95598">
        <ele>60.7</ele>
        <time>2016-07-22T12:01:17Z</time>
      </trkpt>
      <trkpt lat="42.99181" lon="2.95592">
        <ele>60.7</ele>
        <time>2016-07-22T12:01:25Z</time>
      </trkpt>
      <trkpt lat="42.99182" lon="2.95585">
        <ele>60.7</ele>
        <time>2016-07-22T12:01:29Z</time>
      </trkpt>
      <trkpt lat="42.9918" lon="2.95574">
        <ele>61.18</ele>
        <time>2016-07-22T12:01:46Z</time>
      </trkpt>
    </trkseg>
  </trk>
</gpx>